Wetterdaten: Montag, 19.04.2021
Datum Zeit Temp. Aussen Temp. o. S. Temp +5cm Feuchte Auss Luftdruck Regen Sonnenschein Regendauer Solar Windben Empfang
19.04.2021 00:00 10,8 C 9,4 C 7,3 C 79 % 1020,6 hPa 0,0 l/m 0 min 0 min 0 W/m 6,4 km/h (2 Bft) 100,00 %
19.04.2021 00:02 10,8 C 10,0 C 7,3 C 79 % 1020,6 hPa 0,0 l/m 0 min 0 min 0 W/m 6,4 km/h (2 Bft) 88,10 %
19.04.2021 00:04 10,8 C 10,0 C 7,3 C 79 % 1020,6 hPa 0,0 l/m 0 min 0 min 0 W/m 12,9 km/h (3 Bft) 100,00 %
19.04.2021 00:08 10,7 C 9,4 C 7,3 C 79 % 1020,6 hPa 0,0 l/m 0 min 0 min 0 W/m 12,9 km/h (3 Bft) 98,94 %
19.04.2021 00:10 10,7 C 9,4 C 7,3 C 79 % 1020,6 hPa 0,0 l/m 0 min 0 min 0 W/m 9,7 km/h (2 Bft) 100,00 %
19.04.2021 00:12 10,6 C 9,4 C 7,3 C 79 % 1020,7 hPa 0,0 l/m 0 min 0 min 0 W/m 12,9 km/h (3 Bft) 100,00 %
19.04.2021 00:14 10,6 C 9,4 C 7,3 C 79 % 1020,7 hPa 0,0 l/m 0 min 0 min 0 W/m 16,1 km/h (3 Bft) 100,00 %
19.04.2021 00:16 10,6 C 9,4 C 7,3 C 79 % 1020,7 hPa 0,0 l/m 0 min 0 min 0 W/m 16,1 km/h (3 Bft) 100,00 %
19.04.2021 00:18 10,6 C 9,4 C 7,3 C 79 % 1020,7 hPa 0,0 l/m 0 min 0 min 0 W/m 3,2 km/h (1 Bft) 93,62 %
19.04.2021 00:20 10,6 C 9,4 C 7,3 C 79 % 1020,6 hPa 0,0 l/m 0 min 0 min 0 W/m 6,4 km/h (2 Bft) 87,23 %
19.04.2021 00:22 10,5 C 9,4 C 7,3 C 79 % 1020,6 hPa 0,0 l/m 0 min 0 min 0 W/m 12,9 km/h (3 Bft) 65,22 %
19.04.2021 00:24 10,5 C 9,4 C 7,3 C 79 % 1020,6 hPa 0,0 l/m 0 min 0 min 0 W/m 9,7 km/h (2 Bft) 57,45 %
19.04.2021 00:26 10,5 C 9,4 C 7,3 C 79 % 1020,6 hPa 0,0 l/m 0 min 0 min 0 W/m 12,9 km/h (3 Bft) 78,72 %
19.04.2021 00:28 10,5 C 9,4 C 7,3 C 79 % 1020,6 hPa 0,0 l/m 0 min 0 min 0 W/m 12,9 km/h (3 Bft) 80,85 %
19.04.2021 00:30 10,5 C 9,4 C 7,3 C 79 % 1020,7 hPa 0,0 l/m 0 min 0 min 0 W/m 16,1 km/h (3 Bft) 74,47 %
19.04.2021 00:32 10,4 C 9,4 C 7,3 C 79 % 1020,7 hPa 0,0 l/m 0 min 0 min 0 W/m 6,4 km/h (2 Bft) 70,21 %
19.04.2021 00:34 10,4 C 9,4 C 6,7 C 79 % 1020,6 hPa 0,0 l/m 0 min 0 min 0 W/m 12,9 km/h (3 Bft) 58,70 %
19.04.2021 00:36 10,4 C 9,4 C 6,7 C 79 % 1020,6 hPa 0,0 l/m 0 min 0 min 0 W/m 9,7 km/h (2 Bft) 65,96 %
19.04.2021 00:38 10,4 C 9,4 C 6,7 C 79 % 1020,6 hPa 0,0 l/m 0 min 0 min 0 W/m 3,2 km/h (1 Bft) 36,17 %
19.04.2021 00:40 10,3 C 9,4 C 6,7 C 79 % 1020,7 hPa 0,0 l/m 0 min 0 min 0 W/m 12,9 km/h (3 Bft) 38,30 %
19.04.2021 00:42 10,3 C 9,4 C 6,7 C 80 % 1020,6 hPa 0,0 l/m 0 min 0 min 0 W/m 9,7 km/h (2 Bft) 29,79 %
19.04.2021 00:44 10,3 C 8,9 C 6,7 C 80 % 1020,6 hPa 0,0 l/m 0 min 0 min 0 W/m 12,9 km/h (3 Bft) 31,91 %
19.04.2021 00:46 10,2 C 8,9 C 6,7 C 80 % 1020,6 hPa 0,0 l/m 0 min 0 min 0 W/m 12,9 km/h (3 Bft) 97,83 %
19.04.2021 00:48 10,2 C 8,9 C 6,7 C 80 % 1020,6 hPa 0,0 l/m 0 min 0 min 0 W/m 12,9 km/h (3 Bft) 97,87 %
19.04.2021 00:50 10,1 C 8,9 C 6,7 C 80 % 1020,6 hPa 0,0 l/m 0 min 0 min 0 W/m 16,1 km/h (3 Bft) 95,74 %
19.04.2021 00:52 10,1 C 8,9 C 6,7 C 80 % 1020,6 hPa 0,0 l/m 0 min 0 min 0 W/m 12,9 km/h (3 Bft) 95,74 %
19.04.2021 00:54 10,1 C 8,9 C 6,7 C 80 % 1020,6 hPa 0,0 l/m 0 min 0 min 0 W/m 9,7 km/h (2 Bft) 95,74 %
19.04.2021 00:56 10,1 C 8,9 C 6,7 C 80 % 1020,6 hPa 0,0 l/m 0 min 0 min 0 W/m 12,9 km/h (3 Bft) 91,49 %
19.04.2021 00:58 10,0 C 8,9 C 6,7 C 80 % 1020,6 hPa 0,0 l/m 0 min 0 min 0 W/m 9,7 km/h (2 Bft) 95,65 %
19.04.2021 01:00 10,0 C 8,9 C 6,1 C 80 % 1020,6 hPa 0,0 l/m 0 min 0 min 0 W/m 9,7 km/h (2 Bft) 97,87 %
19.04.2021 01:02 10,0 C 8,9 C 6,1 C 80 % 1020,6 hPa 0,0 l/m 0 min 0 min 0 W/m 6,4 km/h (2 Bft) 78,72 %
19.04.2021 01:04 10,0 C 8,9 C 6,1 C 80 % 1020,6 hPa 0,0 l/m 0 min 0 min 0 W/m 6,4 km/h (2 Bft) 14,89 %
19.04.2021 01:06 9,9 C 8,3 C 6,1 C 80 % 1020,6 hPa 0,0 l/m 0 min 0 min 0 W/m 3,2 km/h (1 Bft) 29,79 %
19.04.2021 01:08 9,9 C 8,3 C 6,1 C 80 % 1020,6 hPa 0,0 l/m 0 min 0 min 0 W/m 9,7 km/h (2 Bft) 43,48 %
19.04.2021 01:10 9,8 C 8,9 C 6,1 C 80 % 1020,6 hPa 0,0 l/m 0 min 0 min 0 W/m 0,0 km/h (0 Bft) 21,28 %
19.04.2021 01:12 9,8 C 8,9 C 6,1 C 81 % 1020,6 hPa 0,0 l/m 0 min 0 min 0 W/m 0,0 km/h (0 Bft) 21,28 %
19.04.2021 01:14 9,8 C 8,9 C 6,1 C 81 % 1020,6 hPa 0,0 l/m 0 min 0 min 0 W/m 6,4 km/h (2 Bft) 12,77 %
19.04.2021 01:16 9,7 C 8,9 C 6,1 C 81 % 1020,6 hPa 0,0 l/m 0 min 0 min 0 W/m 9,7 km/h (2 Bft) 21,28 %
19.04.2021 01:18 9,7 C 8,9 C 6,1 C 81 % 1020,5 hPa 0,0 l/m 0 min 0 min 0 W/m 3,2 km/h (1 Bft) 55,32 %
19.04.2021 01:20 9,7 C 8,9 C 6,1 C 81 % 1020,5 hPa 0,0 l/m 0 min 0 min 0 W/m 9,7 km/h (2 Bft) 55,32 %
19.04.2021 01:22 9,6 C 8,9 C 6,7 C 81 % 1020,5 hPa 0,0 l/m 0 min 0 min 0 W/m 6,4 km/h (2 Bft) 56,52 %
19.04.2021 01:24 9,6 C 8,9 C 6,7 C 81 % 1020,6 hPa 0,0 l/m 0 min 0 min 0 W/m 6,4 km/h (2 Bft) 63,83 %
19.04.2021 01:26 9,6 C 8,9 C 6,7 C 81 % 1020,5 hPa 0,0 l/m 0 min 0 min 0 W/m 9,7 km/h (2 Bft) 59,57 %
19.04.2021 01:28 9,6 C 8,9 C 6,7 C 81 % 1020,5 hPa 0,0 l/m 0 min 0 min 0 W/m 9,7 km/h (2 Bft) 51,06 %
19.04.2021 01:30 9,6 C 8,9 C 6,7 C 81 % 1020,5 hPa 0,0 l/m 0 min 0 min 0 W/m 9,7 km/h (2 Bft) 78,72 %
19.04.2021 01:32 9,6 C 8,9 C 6,7 C 81 % 1020,5 hPa 0,0 l/m 0 min 0 min 0 W/m 9,7 km/h (2 Bft) 93,48 %
19.04.2021 01:34 9,5 C 8,9 C 6,7 C 81 % 1020,4 hPa 0,0 l/m 0 min 0 min 0 W/m 12,9 km/h (3 Bft) 91,49 %
19.04.2021 01:36 9,5 C 8,9 C 6,7 C 81 % 1020,4 hPa 0,0 l/m 0 min 0 min 0 W/m 9,7 km/h (2 Bft) 89,36 %
19.04.2021 01:38 9,5 C 8,9 C 6,7 C 81 % 1020,4 hPa 0,0 l/m 0 min 0 min 0 W/m 9,7 km/h (2 Bft) 89,36 %
19.04.2021 01:40 9,5 C 8,9 C 6,7 C 81 % 1020,4 hPa 0,0 l/m 0 min 0 min 0 W/m 6,4 km/h (2 Bft) 38,30 %
19.04.2021 01:42 9,5 C 8,9 C 6,7 C 81 % 1020,4 hPa 0,0 l/m 0 min 0 min 0 W/m 9,7 km/h (2 Bft) 23,40 %
19.04.2021 01:44 9,5 C 8,9 C 6,7 C 81 % 1020,4 hPa 0,0 l/m 0 min 0 min 0 W/m 12,9 km/h (3 Bft) 38,30 %
19.04.2021 01:46 9,5 C 8,9 C 6,7 C 81 % 1020,4 hPa 0,0 l/m 0 min 0 min 0 W/m 12,9 km/h (3 Bft) 73,91 %
19.04.2021 01:48 9,5 C 8,9 C 6,7 C 81 % 1020,5 hPa 0,0 l/m 0 min 0 min 0 W/m 6,4 km/h (2 Bft) 85,11 %
19.04.2021 01:50 9,5 C 8,9 C 6,7 C 81 % 1020,4 hPa 0,0 l/m 0 min 0 min 0 W/m 12,9 km/h (3 Bft) 74,47 %
19.04.2021 01:52 9,5 C 8,9 C 6,7 C 81 % 1020,4 hPa 0,0 l/m 0 min 0 min 0 W/m 6,4 km/h (2 Bft) 36,17 %
19.04.2021 01:54 9,5 C 8,9 C 6,7 C 81 % 1020,4 hPa 0,0 l/m 0 min 0 min 0 W/m 12,9 km/h (3 Bft) 51,06 %
19.04.2021 01:56 9,5 C 8,9 C 6,7 C 81 % 1020,4 hPa 0,0 l/m 0 min 0 min 0 W/m 12,9 km/h (3 Bft) 58,70 %
19.04.2021 01:58 9,5 C 8,9 C 6,7 C 81 % 1020,3 hPa 0,0 l/m 0 min 0 min 0 W/m 9,7 km/h (2 Bft) 87,23 %
19.04.2021 02:00 9,5 C 8,9 C 6,7 C 81 % 1020,3 hPa 0,0 l/m 0 min 0 min 0 W/m 6,4 km/h (2 Bft) 97,87 %
19.04.2021 02:02 9,5 C 8,9 C 6,7 C 81 % 1020,3 hPa 0,0 l/m 0 min 0 min 0 W/m 12,9 km/h (3 Bft) 91,49 %
19.04.2021 02:04 9,5 C 8,9 C 6,7 C 81 % 1020,3 hPa 0,0 l/m 0 min 0 min 0 W/m 6,4 km/h (2 Bft) 85,11 %
19.04.2021 02:06 9,5 C 8,9 C 6,7 C 81 % 1020,3 hPa 0,0 l/m 0 min 0 min 0 W/m 6,4 km/h (2 Bft) 95,74 %
19.04.2021 02:08 9,5 C 8,9 C 6,7 C 81 % 1020,3 hPa 0,0 l/m 0 min 0 min 0 W/m 9,7 km/h (2 Bft) 93,48 %
19.04.2021 02:10 9,5 C 8,9 C 6,7 C 81 % 1020,3 hPa 0,0 l/m 0 min 0 min 0 W/m 9,7 km/h (2 Bft) 82,98 %
19.04.2021 02:12 9,5 C 8,9 C 6,7 C 81 % 1020,4 hPa 0,0 l/m 0 min 0 min 0 W/m 12,9 km/h (3 Bft) 93,62 %
19.04.2021 02:14 9,5 C 8,9 C 6,7 C 81 % 1020,4 hPa 0,0 l/m 0 min 0 min 0 W/m 6,4 km/h (2 Bft) 80,85 %
19.04.2021 02:16 9,4 C 8,9 C 6,7 C 81 % 1020,3 hPa 0,0 l/m 0 min 0 min 0 W/m 12,9 km/h (3 Bft) 79,55 %
19.04.2021 02:18 9,4 C 8,9 C 6,7 C 81 % 1020,3 hPa 0,0 l/m 0 min 0 min 0 W/m 6,4 km/h (2 Bft) 76,60 %
19.04.2021 02:20 9,4 C 8,9 C 6,7 C 81 % 1020,3 hPa 0,0 l/m 0 min 0 min 0 W/m 6,4 km/h (2 Bft) 93,62 %
19.04.2021 02:22 9,4 C 8,9 C 6,7 C 81 % 1020,3 hPa 0,0 l/m 0 min 0 min 0 W/m 3,2 km/h (1 Bft) 95,74 %
19.04.2021 02:24 9,4 C 8,9 C 6,1 C 81 % 1020,3 hPa 0,0 l/m 0 min 0 min 0 W/m 9,7 km/h (2 Bft) 95,65 %
19.04.2021 02:26 9,4 C 8,9 C 6,1 C 81 % 1020,3 hPa 0,0 l/m 0 min 0 min 0 W/m 6,4 km/h (2 Bft) 100,00 %
19.04.2021 02:28 9,4 C 8,3 C 6,1 C 81 % 1020,3 hPa 0,0 l/m 0 min 0 min 0 W/m 3,2 km/h (1 Bft) 95,74 %
19.04.2021 02:30 9,4 C 8,3 C 6,1 C 81 % 1020,2 hPa 0,0 l/m 0 min 0 min 0 W/m 9,7 km/h (2 Bft) 95,74 %
19.04.2021 02:32 9,4 C 8,3 C 6,1 C 81 % 1020,2 hPa 0,0 l/m 0 min 0 min 0 W/m 9,7 km/h (2 Bft) 100,00 %
19.04.2021 02:34 9,3 C 8,3 C 6,1 C 81 % 1020,3 hPa 0,0 l/m 0 min 0 min 0 W/m 19,3 km/h (3 Bft) 84,78 %
19.04.2021 02:36 9,3 C 8,3 C 6,1 C 80 % 1020,3 hPa 0,0 l/m 0 min 0 min 0 W/m 16,1 km/h (3 Bft) 85,11 %
19.04.2021 02:38 9,3 C 8,3 C 6,1 C 80 % 1020,3 hPa 0,0 l/m 0 min 0 min 0 W/m 12,9 km/h (3 Bft) 89,58 %
19.04.2021 02:40 9,3 C 8,3 C 6,1 C 80 % 1020,3 hPa 0,0 l/m 0 min 0 min 0 W/m 9,7 km/h (2 Bft) 93,62 %
19.04.2021 02:42 9,3 C 8,3 C 6,1 C 80 % 1020,3 hPa 0,0 l/m 0 min 0 min 0 W/m 12,9 km/h (3 Bft) 95,74 %
19.04.2021 02:44 9,3 C 8,3 C 6,1 C 80 % 1020,3 hPa 0,0 l/m 0 min 0 min 0 W/m 16,1 km/h (3 Bft) 87,23 %
19.04.2021 02:46 9,3 C 8,3 C 6,1 C 80 % 1020,3 hPa 0,0 l/m 0 min 0 min 0 W/m 12,9 km/h (3 Bft) 91,30 %
19.04.2021 02:48 9,2 C 8,3 C 6,1 C 80 % 1020,3 hPa 0,0 l/m 0 min 0 min 0 W/m 6,4 km/h (2 Bft) 57,45 %
19.04.2021 02:50 9,2 C 8,3 C 6,1 C 80 % 1020,2 hPa 0,0 l/m 0 min 0 min 0 W/m 6,4 km/h (2 Bft) 72,34 %
19.04.2021 02:52 9,2 C 8,3 C 6,1 C 80 % 1020,2 hPa 0,0 l/m 0 min 0 min 0 W/m 9,7 km/h (2 Bft) 91,49 %
19.04.2021 02:54 9,1 C 8,3 C 6,1 C 80 % 1020,2 hPa 0,0 l/m 0 min 0 min 0 W/m 6,4 km/h (2 Bft) 68,09 %
19.04.2021 02:56 9,1 C 8,3 C 6,1 C 81 % 1020,2 hPa 0,0 l/m 0 min 0 min 0 W/m 6,4 km/h (2 Bft) 55,32 %
19.04.2021 02:58 9,1 C 8,3 C 6,1 C 81 % 1020,2 hPa 0,0 l/m 0 min 0 min 0 W/m 6,4 km/h (2 Bft) 95,65 %
19.04.2021 03:00 9,1 C 8,3 C 6,1 C 81 % 1020,2 hPa 0,0 l/m 0 min 0 min 0 W/m 6,4 km/h (2 Bft) 97,87 %
19.04.2021 03:02 9,1 C 8,3 C 6,1 C 81 % 1020,2 hPa 0,0 l/m 0 min 0 min 0 W/m 12,9 km/h (3 Bft) 95,83 %
19.04.2021 03:04 9,1 C 8,3 C 6,1 C 81 % 1020,2 hPa 0,0 l/m 0 min 0 min 0 W/m 9,7 km/h (2 Bft) 80,85 %
19.04.2021 03:06 9,1 C 8,3 C 6,1 C 80 % 1020,2 hPa 0,0 l/m 0 min 0 min 0 W/m 6,4 km/h (2 Bft) 87,23 %
19.04.2021 03:08 9,0 C 8,3 C 6,1 C 81 % 1020,2 hPa 0,0 l/m 0 min 0 min 0 W/m 6,4 km/h (2 Bft) 93,62 %
19.04.2021 03:10 9,0 C 8,3 C 6,1 C 81 % 1020,2 hPa 0,0 l/m 0 min 0 min 0 W/m 9,7 km/h (2 Bft) 100,00 %
19.04.2021 03:12 9,0 C 8,3 C 6,1 C 80 % 1020,2 hPa 0,0 l/m 0 min 0 min 0 W/m 16,1 km/h (3 Bft) 100,00 %
19.04.2021 03:14 9,0 C 8,3 C 6,1 C 80 % 1020,1 hPa 0,0 l/m 0 min 0 min 0 W/m 9,7 km/h (2 Bft) 100,00 %
19.04.2021 03:16 9,0 C 8,3 C 6,1 C 80 % 1020,1 hPa 0,0 l/m 0 min 0 min 0 W/m 12,9 km/h (3 Bft) 100,00 %
19.04.2021 03:18 9,0 C 8,3 C 6,1 C 80 % 1020,1 hPa 0,0 l/m 0 min 0 min 0 W/m 6,4 km/h (2 Bft) 97,87 %
19.04.2021 03:20 9,0 C 8,3 C 6,1 C 80 % 1020,1 hPa 0,0 l/m 0 min 0 min 0 W/m 9,7 km/h (2 Bft) 100,00 %
19.04.2021 03:22 8,9 C 8,3 C 6,1 C 80 % 1020,1 hPa 0,0 l/m 0 min 0 min 0 W/m 16,1 km/h (3 Bft) 97,87 %
19.04.2021 03:24 8,9 C 8,3 C 6,1 C 80 % 1020,1 hPa 0,0 l/m 0 min 0 min 0 W/m 12,9 km/h (3 Bft) 100,00 %
19.04.2021 03:26 8,9 C 8,3 C 6,1 C 80 % 1020,1 hPa 0,0 l/m 0 min 0 min 0 W/m 12,9 km/h (3 Bft) 100,00 %
19.04.2021 03:28 8,9 C 8,3 C 6,1 C 80 % 1020,1 hPa 0,0 l/m 0 min 0 min 0 W/m 12,9 km/h (3 Bft) 97,87 %
19.04.2021 03:30 8,9 C 8,3 C 6,1 C 80 % 1020,0 hPa 0,0 l/m 0 min 0 min 0 W/m 16,1 km/h (3 Bft) 97,83 %
19.04.2021 03:32 8,9 C 8,3 C 6,1 C 80 % 1020,0 hPa 0,0 l/m 0 min 0 min 0 W/m 16,1 km/h (3 Bft) 100,00 %
19.04.2021 03:34 8,9 C 8,3 C 6,1 C 80 % 1020,0 hPa 0,0 l/m 0 min 0 min 0 W/m 12,9 km/h (3 Bft) 100,00 %
19.04.2021 03:36 8,8 C 7,8 C 6,1 C 80 % 1020,0 hPa 0,0 l/m 0 min 0 min 0 W/m 12,9 km/h (3 Bft) 100,00 %
19.04.2021 03:38 8,8 C 7,8 C 6,1 C 80 % 1020,0 hPa 0,0 l/m 0 min 0 min 0 W/m 12,9 km/h (3 Bft) 97,87 %
19.04.2021 03:40 8,8 C 7,8 C 5,6 C 80 % 1020,0 hPa 0,0 l/m 0 min 0 min 0 W/m 12,9 km/h (3 Bft) 95,74 %
19.04.2021 03:42 8,8 C 7,8 C 5,6 C 80 % 1020,0 hPa 0,0 l/m 0 min 0 min 0 W/m 12,9 km/h (3 Bft) 97,83 %
19.04.2021 03:44 8,8 C 7,8 C 5,6 C 80 % 1020,0 hPa 0,0 l/m 0 min 0 min 0 W/m 3,2 km/h (1 Bft) 76,60 %
19.04.2021 03:46 8,8 C 7,8 C 5,6 C 80 % 1020,0 hPa 0,0 l/m 0 min 0 min 0 W/m 9,7 km/h (2 Bft) 57,45 %
19.04.2021 03:48 8,8 C 7,8 C 5,6 C 80 % 1020,0 hPa 0,0 l/m 0 min 0 min 0 W/m 9,7 km/h (2 Bft) 78,72 %
19.04.2021 03:50 8,7 C 7,8 C 5,6 C 81 % 1020,0 hPa 0,0 l/m 0 min 0 min 0 W/m 12,9 km/h (3 Bft) 65,96 %
19.04.2021 03:52 8,7 C 7,8 C 5,6 C 81 % 1020,0 hPa 0,0 l/m 0 min 0 min 0 W/m 12,9 km/h (3 Bft) 65,96 %
19.04.2021 03:54 8,7 C 7,8 C 5,6 C 81 % 1020,0 hPa 0,0 l/m 0 min 0 min 0 W/m 9,7 km/h (2 Bft) 93,48 %
19.04.2021 03:56 8,6 C 7,8 C 5,6 C 81 % 1020,0 hPa 0,0 l/m 0 min 0 min 0 W/m 6,4 km/h (2 Bft) 82,98 %
19.04.2021 03:58 8,6 C 7,8 C 5,6 C 81 % 1020,0 hPa 0,0 l/m 0 min 0 min 0 W/m 3,2 km/h (1 Bft) 78,72 %
19.04.2021 04:00 8,6 C 7,8 C 5,6 C 81 % 1020,0 hPa 0,0 l/m 0 min 0 min 0 W/m 6,4 km/h (2 Bft) 68,09 %
19.04.2021 04:05 8,6 C 7,8 C 5,6 C 81 % 1019,9 hPa 0,0 l/m 0 min 0 min 0 W/m 3,2 km/h (1 Bft) 1,75 %
19.04.2021 04:13 8,5 C 7,8 C 5,6 C 81 % 1019,9 hPa 0,0 l/m 0 min 0 min 0 W/m 9,7 km/h (2 Bft) 77,97 %
19.04.2021 04:14 8,5 C 7,8 C 5,6 C 81 % 1019,9 hPa 0,0 l/m 0 min 0 min 0 W/m 9,7 km/h (2 Bft) 52,17 %
19.04.2021 04:16 8,5 C 7,8 C 5,6 C 81 % 1019,9 hPa 0,0 l/m 0 min 0 min 0 W/m 9,7 km/h (2 Bft) 72,34 %
19.04.2021 04:18 8,5 C 7,8 C 5,6 C 81 % 1019,8 hPa 0,0 l/m 0 min 0 min 0 W/m 12,9 km/h (3 Bft) 90,24 %
19.04.2021 04:20 8,5 C 7,8 C 5,6 C 81 % 1019,8 hPa 0,0 l/m 0 min 0 min 0 W/m 12,9 km/h (3 Bft) 89,36 %
19.04.2021 04:22 8,4 C 7,8 C 5,6 C 81 % 1019,8 hPa 0,0 l/m 0 min 0 min 0 W/m 9,7 km/h (2 Bft) 80,85 %
19.04.2021 04:24 8,4 C 7,8 C 5,6 C 81 % 1019,8 hPa 0,0 l/m 0 min 2 min 0 W/m 12,9 km/h (3 Bft) 72,34 %
19.04.2021 04:26 8,4 C 7,8 C 5,6 C 81 % 1019,9 hPa 0,0 l/m 0 min 2 min 0 W/m 12,9 km/h (3 Bft) 78,72 %
19.04.2021 04:28 8,4 C 7,8 C 5,6 C 82 % 1019,9 hPa 0,0 l/m 0 min 0 min 0 W/m 9,7 km/h (2 Bft) 76,09 %
19.04.2021 04:30 8,4 C 7,8 C 5,6 C 82 % 1019,8 hPa 0,0 l/m 0 min 0 min 0 W/m 6,4 km/h (2 Bft) 87,23 %
19.04.2021 04:32 8,4 C 7,8 C 5,6 C 82 % 1019,8 hPa 0,0 l/m 0 min 2 min 0 W/m 9,7 km/h (2 Bft) 38,30 %
19.04.2021 04:34 8,4 C 7,8 C 5,0 C 83 % 1019,8 hPa 0,0 l/m 0 min 2 min 0 W/m 12,9 km/h (3 Bft) 38,30 %
19.04.2021 04:36 8,4 C 7,2 C 5,0 C 83 % 1019,8 hPa 0,0 l/m 0 min 2 min 0 W/m 9,7 km/h (2 Bft) 91,49 %
19.04.2021 04:38 8,3 C 7,2 C 5,0 C 83 % 1019,9 hPa 0,0 l/m 0 min 2 min 0 W/m 9,7 km/h (2 Bft) 95,74 %
19.04.2021 04:40 8,3 C 7,2 C 5,0 C 84 % 1019,9 hPa 0,0 l/m 0 min 2 min 0 W/m 9,7 km/h (2 Bft) 97,83 %
19.04.2021 04:42 8,3 C 7,2 C 5,0 C 84 % 1019,9 hPa 0,0 l/m 0 min 2 min 0 W/m 6,4 km/h (2 Bft) 97,87 %
19.04.2021 04:44 8,3 C 7,2 C 5,0 C 84 % 1019,9 hPa 0,0 l/m 0 min 2 min 0 W/m 3,2 km/h (1 Bft) 95,74 %
19.04.2021 04:46 8,2 C 7,2 C 5,0 C 85 % 1019,9 hPa 0,0 l/m 0 min 2 min 0 W/m 3,2 km/h (1 Bft) 87,23 %
19.04.2021 04:48 8,1 C 7,2 C 5,0 C 85 % 1019,9 hPa 0,0 l/m 0 min 2 min 0 W/m 6,4 km/h (2 Bft) 91,49 %
19.04.2021 04:50 8,1 C 7,2 C 5,0 C 85 % 1019,9 hPa 0,0 l/m 0 min 0 min 0 W/m 6,4 km/h (2 Bft) 93,62 %
19.04.2021 04:52 8,1 C 7,2 C 5,0 C 85 % 1019,9 hPa 0,0 l/m 0 min 0 min 0 W/m 3,2 km/h (1 Bft) 78,26 %
19.04.2021 04:54 8,1 C 7,2 C 5,0 C 85 % 1019,8 hPa 0,0 l/m 0 min 0 min 0 W/m 6,4 km/h (2 Bft) 70,21 %
19.04.2021 04:56 8,0 C 7,2 C 5,0 C 86 % 1019,8 hPa 0,0 l/m 0 min 0 min 0 W/m 3,2 km/h (1 Bft) 97,87 %
19.04.2021 04:58 8,0 C 7,2 C 5,0 C 86 % 1019,9 hPa 0,0 l/m 0 min 0 min 0 W/m 3,2 km/h (1 Bft) 78,72 %
19.04.2021 05:00 8,0 C 7,2 C 5,0 C 86 % 1019,9 hPa 0,0 l/m 0 min 0 min 0 W/m 3,2 km/h (1 Bft) 97,87 %
19.04.2021 05:02 8,0 C 7,2 C 5,0 C 86 % 1019,9 hPa 0,0 l/m 0 min 0 min 0 W/m 3,2 km/h (1 Bft) 97,87 %
19.04.2021 05:04 8,0 C 7,2 C 5,0 C 86 % 1019,8 hPa 0,0 l/m 0 min 0 min 0 W/m 3,2 km/h (1 Bft) 97,83 %
19.04.2021 05:06 8,0 C 7,2 C 5,0 C 86 % 1019,8 hPa 0,0 l/m 0 min 0 min 0 W/m 3,2 km/h (1 Bft) 93,62 %
19.04.2021 05:08 8,0 C 7,2 C 5,0 C 86 % 1019,9 hPa 0,0 l/m 0 min 0 min 0 W/m 3,2 km/h (1 Bft) 95,74 %
19.04.2021 05:10 8,0 C 7,2 C 5,0 C 87 % 1019,9 hPa 0,0 l/m 0 min 0 min 0 W/m 6,4 km/h (2 Bft) 95,74 %
19.04.2021 05:12 7,9 C 7,2 C 5,0 C 87 % 1019,9 hPa 0,0 l/m 0 min 0 min 0 W/m 6,4 km/h (2 Bft) 95,74 %
19.04.2021 05:14 7,9 C 7,2 C 5,0 C 87 % 1019,9 hPa 0,0 l/m 0 min 0 min 0 W/m 6,4 km/h (2 Bft) 95,74 %
19.04.2021 05:16 7,9 C 7,2 C 5,0 C 87 % 1019,9 hPa 0,0 l/m 0 min 0 min 0 W/m 6,4 km/h (2 Bft) 95,65 %
19.04.2021 05:18 7,9 C 7,2 C 5,0 C 87 % 1019,9 hPa 0,0 l/m 0 min 0 min 0 W/m 6,4 km/h (2 Bft) 93,62 %
19.04.2021 05:20 7,9 C 7,2 C 5,0 C 87 % 1019,9 hPa 0,0 l/m 0 min 0 min 0 W/m 3,2 km/h (1 Bft) 95,74 %
19.04.2021 05:22 7,9 C 7,2 C 5,0 C 87 % 1019,9 hPa 0,0 l/m 0 min 0 min 0 W/m 3,2 km/h (1 Bft) 93,62 %
19.04.2021 05:24 7,9 C 7,2 C 5,0 C 87 % 1019,9 hPa 0,0 l/m 0 min 0 min 0 W/m 3,2 km/h (1 Bft) 95,74 %
19.04.2021 05:26 7,8 C 7,2 C 5,0 C 87 % 1019,9 hPa 0,0 l/m 0 min 0 min 0 W/m 3,2 km/h (1 Bft) 95,74 %
19.04.2021 05:28 7,8 C 7,2 C 5,0 C 87 % 1020,0 hPa 0,0 l/m 0 min 0 min 0 W/m 3,2 km/h (1 Bft) 93,48 %
19.04.2021 05:30 7,8 C 7,2 C 5,0 C 87 % 1019,9 hPa 0,0 l/m 0 min 0 min 0 W/m 3,2 km/h (1 Bft) 95,74 %
19.04.2021 05:32 7,8 C 7,2 C 5,0 C 87 % 1020,0 hPa 0,0 l/m 0 min 0 min 0 W/m 3,2 km/h (1 Bft) 95,74 %
19.04.2021 05:34 7,8 C 7,2 C 5,0 C 87 % 1020,0 hPa 0,0 l/m 0 min 0 min 0 W/m 6,4 km/h (2 Bft) 97,87 %
19.04.2021 05:36 7,8 C 7,2 C 5,0 C 87 % 1020,0 hPa 0,0 l/m 0 min 0 min 0 W/m 3,2 km/h (1 Bft) 97,87 %
19.04.2021 05:38 7,8 C 7,2 C 5,0 C 87 % 1020,0 hPa 0,0 l/m 0 min 0 min 0 W/m 3,2 km/h (1 Bft) 25,53 %
19.04.2021 05:40 7,7 C 7,2 C 5,0 C 87 % 1020,0 hPa 0,0 l/m 0 min 0 min 0 W/m 3,2 km/h (1 Bft) 54,35 %
19.04.2021 05:42 7,7 C 7,2 C 5,0 C 87 % 1020,0 hPa 0,0 l/m 0 min 0 min 0 W/m 3,2 km/h (1 Bft) 63,83 %
19.04.2021 05:44 7,7 C 7,2 C 5,0 C 88 % 1020,0 hPa 0,0 l/m 0 min 0 min 0 W/m 3,2 km/h (1 Bft) 55,32 %
19.04.2021 05:46 7,6 C 7,2 C 5,0 C 88 % 1020,0 hPa 0,0 l/m 0 min 0 min 0 W/m 6,4 km/h (2 Bft) 85,11 %
19.04.2021 05:48 7,6 C 7,2 C 5,0 C 88 % 1020,0 hPa 0,0 l/m 0 min 0 min 0 W/m 6,4 km/h (2 Bft) 87,23 %
19.04.2021 05:50 7,6 C 7,2 C 5,0 C 88 % 1020,0 hPa 0,0 l/m 0 min 0 min 0 W/m 9,7 km/h (2 Bft) 74,47 %
19.04.2021 05:52 7,6 C 7,2 C 5,0 C 88 % 1020,0 hPa 0,0 l/m 0 min 0 min 0 W/m 3,2 km/h (1 Bft) 80,43 %
19.04.2021 05:54 7,6 C 7,2 C 5,0 C 88 % 1020,0 hPa 0,0 l/m 0 min 0 min 0 W/m 3,2 km/h (1 Bft) 78,72 %
19.04.2021 05:56 7,6 C 7,2 C 5,0 C 88 % 1020,0 hPa 0,0 l/m 0 min 0 min 0 W/m 3,2 km/h (1 Bft) 74,47 %
19.04.2021 05:58 7,6 C 7,2 C 5,0 C 88 % 1019,9 hPa 0,0 l/m 0 min 0 min 0 W/m 0,0 km/h (0 Bft) 87,23 %
19.04.2021 06:00 7,6 C 7,2 C 5,0 C 88 % 1019,9 hPa 0,0 l/m 0 min 0 min 0 W/m 0,0 km/h (0 Bft) 85,11 %
19.04.2021 06:02 7,6 C 7,2 C 5,0 C 88 % 1019,9 hPa 0,0 l/m 0 min 0 min 0 W/m 0,0 km/h (0 Bft) 56,52 %
19.04.2021 06:04 7,6 C 7,2 C 5,0 C 88 % 1019,9 hPa 0,0 l/m 0 min 0 min 0 W/m 3,2 km/h (1 Bft) 44,68 %
19.04.2021 06:08 7,6 C 7,2 C 5,0 C 88 % 1019,9 hPa 0,0 l/m 0 min 0 min 0 W/m 3,2 km/h (1 Bft) 67,37 %
19.04.2021 06:10 7,6 C 7,2 C 5,0 C 88 % 1019,9 hPa 0,0 l/m 0 min 0 min 0 W/m 3,2 km/h (1 Bft) 93,62 %
19.04.2021 06:12 7,6 C 7,2 C 5,0 C 88 % 1019,9 hPa 0,0 l/m 0 min 0 min 0 W/m 0,0 km/h (0 Bft) 91,49 %
19.04.2021 06:14 7,6 C 7,2 C 5,0 C 88 % 1019,9 hPa 0,0 l/m 0 min 0 min 0 W/m 3,2 km/h (1 Bft) 91,30 %
19.04.2021 06:16 7,6 C 7,2 C 5,0 C 88 % 1019,9 hPa 0,0 l/m 0 min 0 min 0 W/m 3,2 km/h (1 Bft) 93,75 %
19.04.2021 06:18 7,6 C 7,2 C 5,0 C 88 % 1019,9 hPa 0,0 l/m 0 min 0 min 0 W/m 0,0 km/h (0 Bft) 95,92 %
19.04.2021 06:20 7,6 C 7,2 C 5,0 C 88 % 1019,9 hPa 0,0 l/m 0 min 0 min 0 W/m 0,0 km/h (0 Bft) 95,35 %
19.04.2021 06:22 7,6 C 7,2 C 5,0 C 88 % 1019,9 hPa 0,0 l/m 0 min 0 min 0 W/m 3,2 km/h (1 Bft) 96,00 %
19.04.2021 06:24 7,6 C 6,7 C 5,0 C 88 % 1019,9 hPa 0,0 l/m 0 min 0 min 0 W/m 3,2 km/h (1 Bft) 91,84 %
19.04.2021 06:26 7,6 C 6,7 C 5,0 C 88 % 1019,9 hPa 0,0 l/m 0 min 0 min 0 W/m 0,0 km/h (0 Bft) 95,74 %
19.04.2021 06:28 7,6 C 6,7 C 5,0 C 88 % 1019,9 hPa 0,0 l/m 0 min 0 min 0 W/m 0,0 km/h (0 Bft) 95,74 %
19.04.2021 06:30 7,6 C 6,7 C 5,0 C 88 % 1019,9 hPa 0,0 l/m 0 min 0 min 0 W/m 3,2 km/h (1 Bft) 95,65 %
19.04.2021 06:32 7,6 C 6,7 C 5,0 C 89 % 1019,9 hPa 0,0 l/m 0 min 0 min 0 W/m 3,2 km/h (1 Bft) 94,44 %
19.04.2021 06:34 7,5 C 6,7 C 5,0 C 89 % 1019,9 hPa 0,0 l/m 0 min 0 min 0 W/m 3,2 km/h (1 Bft) 86,96 %
19.04.2021 06:36 7,5 C 6,7 C 5,0 C 89 % 1020,0 hPa 0,0 l/m 0 min 0 min 0 W/m 0,0 km/h (0 Bft) 59,57 %
19.04.2021 06:38 7,5 C 6,7 C 5,0 C 89 % 1019,9 hPa 0,0 l/m 0 min 0 min 0 W/m 0,0 km/h (0 Bft) 72,34 %
19.04.2021 06:40 7,5 C 6,7 C 5,0 C 89 % 1019,9 hPa 0,0 l/m 0 min 0 min 0 W/m 3,2 km/h (1 Bft) 57,45 %
19.04.2021 06:42 7,5 C 6,7 C 5,0 C 89 % 1019,9 hPa 0,0 l/m 0 min 0 min 0 W/m 0,0 km/h (0 Bft) 34,04 %
19.04.2021 06:44 7,5 C 6,7 C 5,0 C 89 % 1020,0 hPa 0,0 l/m 0 min 0 min 0 W/m 3,2 km/h (1 Bft) 46,81 %
19.04.2021 06:46 7,5 C 6,7 C 5,0 C 89 % 1019,9 hPa 0,0 l/m 0 min 0 min 0 W/m 0,0 km/h (0 Bft) 17,39 %
19.04.2021 06:48 7,4 C 6,7 C 5,0 C 89 % 1020,0 hPa 0,0 l/m 0 min 0 min 0 W/m 3,2 km/h (1 Bft) 55,32 %
19.04.2021 06:50 7,4 C 6,7 C 5,0 C 89 % 1020,0 hPa 0,0 l/m 0 min 0 min 0 W/m 3,2 km/h (1 Bft) 65,96 %
19.04.2021 06:52 7,4 C 6,7 C 4,5 C 89 % 1020,0 hPa 0,0 l/m 0 min 2 min 0 W/m 3,2 km/h (1 Bft) 91,49 %
19.04.2021 06:54 7,4 C 6,7 C 4,5 C 89 % 1020,0 hPa 0,0 l/m 0 min 2 min 0 W/m 3,2 km/h (1 Bft) 93,62 %
19.04.2021 06:56 7,4 C 6,7 C 4,5 C 89 % 1020,0 hPa 0,0 l/m 0 min 2 min 0 W/m 0,0 km/h (0 Bft) 95,74 %
19.04.2021 06:58 7,4 C 6,7 C 4,5 C 89 % 1020,0 hPa 0,0 l/m 0 min 0 min 0 W/m 3,2 km/h (1 Bft) 95,65 %
19.04.2021 07:00 7,4 C 6,7 C 4,5 C 89 % 1020,0 hPa 0,0 l/m 0 min 0 min 0 W/m 6,4 km/h (2 Bft) 72,34 %
19.04.2021 07:02 7,4 C 6,7 C 4,5 C 89 % 1020,0 hPa 0,0 l/m 0 min 0 min 0 W/m 6,4 km/h (2 Bft) 76,60 %
19.04.2021 07:04 7,4 C 6,7 C 4,5 C 89 % 1020,1 hPa 0,0 l/m 0 min 0 min 0 W/m 9,7 km/h (2 Bft) 95,74 %
19.04.2021 07:06 7,4 C 6,7 C 4,5 C 89 % 1020,1 hPa 0,0 l/m 0 min 0 min 0 W/m 6,4 km/h (2 Bft) 95,74 %
19.04.2021 07:08 7,3 C 6,7 C 3,9 C 89 % 1020,0 hPa 0,2 l/m 0 min 2 min 0 W/m 6,4 km/h (2 Bft) 81,13 %
19.04.2021 07:10 7,3 C 6,1 C 3,9 C 90 % 1020,0 hPa 0,0 l/m 0 min 2 min 0 W/m 0,0 km/h (0 Bft) 100,00 %
19.04.2021 07:12 7,3 C 6,1 C 3,9 C 90 % 1020,0 hPa 0,0 l/m 0 min 2 min 2 W/m 0,0 km/h (0 Bft) 100,00 %
19.04.2021 07:14 7,3 C 6,1 C 3,9 C 90 % 1020,0 hPa 0,0 l/m 0 min 2 min 3 W/m 3,2 km/h (1 Bft) 100,00 %
19.04.2021 07:16 7,3 C 6,1 C 3,9 C 90 % 1020,1 hPa 0,0 l/m 0 min 2 min 0 W/m 3,2 km/h (1 Bft) 97,87 %
19.04.2021 07:18 7,3 C 6,1 C 3,9 C 90 % 1020,1 hPa 0,0 l/m 0 min 0 min 0 W/m 6,4 km/h (2 Bft) 100,00 %
19.04.2021 07:20 7,3 C 6,1 C 3,9 C 90 % 1020,1 hPa 0,0 l/m 0 min 0 min 0 W/m 9,7 km/h (2 Bft) 97,87 %
19.04.2021 07:22 7,2 C 6,1 C 3,9 C 91 % 1020,1 hPa 0,0 l/m 0 min 2 min 0 W/m 6,4 km/h (2 Bft) 97,87 %
19.04.2021 07:24 7,2 C 6,1 C 3,9 C 91 % 1020,1 hPa 0,0 l/m 0 min 2 min 0 W/m 6,4 km/h (2 Bft) 100,00 %
19.04.2021 07:26 7,2 C 6,1 C 3,9 C 91 % 1020,1 hPa 0,0 l/m 0 min 2 min 0 W/m 3,2 km/h (1 Bft) 100,00 %
19.04.2021 07:28 7,2 C 6,1 C 3,9 C 91 % 1020,1 hPa 0,2 l/m 0 min 2 min 0 W/m 3,2 km/h (1 Bft) 97,87 %
19.04.2021 07:30 7,1 C 6,1 C 3,9 C 91 % 1020,1 hPa 0,0 l/m 0 min 2 min 0 W/m 6,4 km/h (2 Bft) 100,00 %
19.04.2021 07:32 7,1 C 6,1 C 3,9 C 91 % 1020,0 hPa 0,2 l/m 0 min 2 min 0 W/m 6,4 km/h (2 Bft) 100,00 %
19.04.2021 07:34 7,1 C 6,1 C 3,9 C 91 % 1020,0 hPa 0,0 l/m 0 min 2 min 0 W/m 3,2 km/h (1 Bft) 100,00 %
19.04.2021 07:36 7,1 C 6,1 C 4,5 C 91 % 1020,0 hPa 0,2 l/m 0 min 2 min 0 W/m 0,0 km/h (0 Bft) 100,00 %
19.04.2021 07:38 7,1 C 6,1 C 3,9 C 91 % 1020,1 hPa 0,2 l/m 0 min 2 min 0 W/m 3,2 km/h (1 Bft) 100,00 %
19.04.2021 07:40 7,1 C 6,1 C 3,9 C 91 % 1020,1 hPa 0,0 l/m 0 min 2 min 0 W/m 3,2 km/h (1 Bft) 100,00 %
19.04.2021 07:42 7,1 C 6,1 C 3,9 C 92 % 1020,1 hPa 0,2 l/m 0 min 2 min 2 W/m 3,2 km/h (1 Bft) 97,87 %
19.04.2021 07:44 7,1 C 6,1 C 3,9 C 92 % 1020,1 hPa 0,0 l/m 0 min 2 min 5 W/m 3,2 km/h (1 Bft) 100,00 %
19.04.2021 07:46 7,1 C 6,1 C 3,9 C 92 % 1020,1 hPa 0,2 l/m 0 min 2 min 8 W/m 0,0 km/h (0 Bft) 82,98 %
19.04.2021 07:48 7,1 C 6,1 C 3,9 C 92 % 1020,0 hPa 0,2 l/m 0 min 2 min 11 W/m 6,4 km/h (2 Bft) 71,74 %
19.04.2021 07:50 7,1 C 6,1 C 3,9 C 92 % 1020,1 hPa 0,0 l/m 0 min 2 min 11 W/m 3,2 km/h (1 Bft) 100,00 %
19.04.2021 07:52 7,1 C 6,1 C 3,9 C 92 % 1020,0 hPa 0,2 l/m 0 min 2 min 11 W/m 0,0 km/h (0 Bft) 100,00 %
19.04.2021 07:54 7,1 C 6,1 C 4,5 C 92 % 1020,1 hPa 0,0 l/m 0 min 2 min 13 W/m 0,0 km/h (0 Bft) 95,74 %
19.04.2021 07:56 7,1 C 6,1 C 4,5 C 92 % 1020,1 hPa 0,0 l/m 0 min 2 min 17 W/m 0,0 km/h (0 Bft) 100,00 %
19.04.2021 07:58 7,1 C 6,1 C 4,5 C 93 % 1020,1 hPa 0,0 l/m 0 min 2 min 18 W/m 3,2 km/h (1 Bft) 95,74 %
19.04.2021 08:00 7,1 C 6,1 C 3,9 C 93 % 1020,3 hPa 0,0 l/m 0 min 2 min 15 W/m 6,4 km/h (2 Bft) 97,83 %
19.04.2021 08:02 7,1 C 6,1 C 3,9 C 93 % 1020,4 hPa 0,0 l/m 0 min 2 min 8 W/m 9,7 km/h (2 Bft) 97,92 %
19.04.2021 08:04 7,1 C 6,1 C 3,9 C 93 % 1020,5 hPa 0,0 l/m 0 min 2 min 6 W/m 9,7 km/h (2 Bft) 95,74 %
19.04.2021 08:06 7,1 C 6,1 C 4,5 C 93 % 1020,6 hPa 0,0 l/m 0 min 2 min 5 W/m 6,4 km/h (2 Bft) 97,87 %
19.04.2021 08:08 7,1 C 6,1 C 4,5 C 93 % 1020,5 hPa 0,2 l/m 0 min 2 min 6 W/m 3,2 km/h (1 Bft) 97,87 %
19.04.2021 08:10 7,1 C 6,1 C 3,9 C 93 % 1020,4 hPa 0,0 l/m 0 min 2 min 10 W/m 3,2 km/h (1 Bft) 97,87 %
19.04.2021 08:12 7,1 C 6,1 C 4,5 C 93 % 1020,4 hPa 0,0 l/m 0 min 2 min 12 W/m 3,2 km/h (1 Bft) 97,87 %
19.04.2021 08:14 7,0 C 6,1 C 4,5 C 93 % 1020,3 hPa 0,0 l/m 0 min 2 min 12 W/m 3,2 km/h (1 Bft) 97,83 %
19.04.2021 08:16 7,0 C 6,1 C 4,5 C 94 % 1020,3 hPa 0,0 l/m 0 min 2 min 12 W/m 0,0 km/h (0 Bft) 95,74 %
19.04.2021 08:18 7,0 C 6,1 C 4,5 C 94 % 1020,4 hPa 0,0 l/m 0 min 2 min 11 W/m 3,2 km/h (1 Bft) 97,87 %
19.04.2021 08:20 7,0 C 6,1 C 3,9 C 94 % 1020,5 hPa 0,0 l/m 0 min 2 min 10 W/m 9,7 km/h (2 Bft) 97,87 %
19.04.2021 08:22 7,0 C 6,1 C 3,9 C 94 % 1020,5 hPa 0,0 l/m 0 min 2 min 8 W/m 3,2 km/h (1 Bft) 97,37 %
19.04.2021 08:24 7,0 C 6,1 C 3,9 C 94 % 1020,5 hPa 0,0 l/m 0 min 2 min 8 W/m 3,2 km/h (1 Bft) 95,74 %
19.04.2021 08:26 7,0 C 6,1 C 3,9 C 94 % 1020,5 hPa 0,2 l/m 0 min 2 min 10 W/m 6,4 km/h (2 Bft) 97,87 %
19.04.2021 08:28 6,9 C 5,6 C 3,9 C 94 % 1020,4 hPa 0,0 l/m 0 min 2 min 13 W/m 6,4 km/h (2 Bft) 97,87 %
19.04.2021 08:30 6,9 C 5,6 C 3,9 C 94 % 1020,3 hPa 0,2 l/m 0 min 2 min 17 W/m 3,2 km/h (1 Bft) 97,87 %
19.04.2021 08:32 6,9 C 5,6 C 3,9 C 94 % 1020,3 hPa 0,0 l/m 0 min 2 min 19 W/m 6,4 km/h (2 Bft) 97,83 %
19.04.2021 08:34 6,9 C 5,6 C 3,9 C 94 % 1020,4 hPa 0,2 l/m 0 min 2 min 21 W/m 3,2 km/h (1 Bft) 95,74 %
19.04.2021 08:36 6,9 C 6,1 C 3,9 C 94 % 1020,4 hPa 0,0 l/m 0 min 2 min 24 W/m 3,2 km/h (1 Bft) 95,74 %
19.04.2021 08:38 6,9 C 6,1 C 3,9 C 94 % 1020,4 hPa 0,2 l/m 0 min 2 min 26 W/m 0,0 km/h (0 Bft) 97,87 %
19.04.2021 08:40 6,9 C 6,1 C 4,5 C 95 % 1020,4 hPa 0,2 l/m 0 min 2 min 30 W/m 3,2 km/h (1 Bft) 95,74 %
19.04.2021 08:42 6,9 C 6,1 C 4,5 C 95 % 1020,4 hPa 0,0 l/m 0 min 2 min 32 W/m 3,2 km/h (1 Bft) 95,74 %
19.04.2021 08:44 6,9 C 6,1 C 4,5 C 95 % 1020,4 hPa 0,2 l/m 0 min 2 min 33 W/m 0,0 km/h (0 Bft) 95,65 %
19.04.2021 08:46 6,9 C 6,1 C 4,5 C 95 % 1020,3 hPa 0,0 l/m 0 min 2 min 37 W/m 3,2 km/h (1 Bft) 95,74 %
19.04.2021 08:48 6,9 C 6,1 C 4,5 C 95 % 1020,4 hPa 0,2 l/m 0 min 2 min 40 W/m 3,2 km/h (1 Bft) 95,74 %
19.04.2021 08:50 6,9 C 6,1 C 4,5 C 95 % 1020,3 hPa 0,0 l/m 0 min 2 min 44 W/m 3,2 km/h (1 Bft) 95,74 %
19.04.2021 08:52 7,0 C 6,1 C 4,5 C 95 % 1020,4 hPa 0,2 l/m 0 min 2 min 48 W/m 3,2 km/h (1 Bft) 95,74 %
19.04.2021 08:54 6,9 C 6,1 C 4,5 C 95 % 1020,3 hPa 0,0 l/m 0 min 2 min 52 W/m 3,2 km/h (1 Bft) 97,87 %
19.04.2021 08:56 6,9 C 6,1 C 4,5 C 95 % 1020,3 hPa 0,2 l/m 0 min 2 min 56 W/m 3,2 km/h (1 Bft) 95,65 %
19.04.2021 08:58 6,9 C 6,1 C 4,5 C 95 % 1020,3 hPa 0,0 l/m 0 min 2 min 62 W/m 6,4 km/h (2 Bft) 97,87 %
19.04.2021 09:00 6,9 C 6,1 C 4,5 C 95 % 1020,2 hPa 0,0 l/m 0 min 2 min 68 W/m 9,7 km/h (2 Bft) 97,87 %
19.04.2021 09:02 6,8 C 6,1 C 4,5 C 95 % 1020,3 hPa 0,0 l/m 0 min 2 min 74 W/m 12,9 km/h (3 Bft) 95,74 %
19.04.2021 09:04 6,8 C 6,1 C 4,5 C 95 % 1020,3 hPa 0,0 l/m 0 min 2 min 78 W/m 6,4 km/h (2 Bft) 97,87 %
19.04.2021 09:06 6,8 C 6,1 C 4,5 C 95 % 1020,3 hPa 0,0 l/m 0 min 2 min 83 W/m 3,2 km/h (1 Bft) 95,74 %
19.04.2021 09:08 6,9 C 6,1 C 4,5 C 96 % 1020,4 hPa 0,2 l/m 0 min 2 min 84 W/m 3,2 km/h (1 Bft) 95,65 %
19.04.2021 09:10 6,9 C 6,1 C 4,5 C 96 % 1020,3 hPa 0,0 l/m 0 min 2 min 84 W/m 3,2 km/h (1 Bft) 97,87 %
19.04.2021 09:12 6,9 C 6,1 C 4,5 C 96 % 1020,3 hPa 0,0 l/m 0 min 2 min 82 W/m 3,2 km/h (1 Bft) 97,87 %
19.04.2021 09:14 7,0 C 6,7 C 4,5 C 96 % 1020,3 hPa 0,0 l/m 0 min 2 min 78 W/m 3,2 km/h (1 Bft) 95,74 %
19.04.2021 09:16 7,0 C 6,7 C 5,0 C 96 % 1020,3 hPa 0,0 l/m 0 min 2 min 75 W/m 3,2 km/h (1 Bft) 97,87 %
19.04.2021 09:18 7,0 C 6,7 C 5,0 C 96 % 1020,3 hPa 0,0 l/m 0 min 2 min 71 W/m 3,2 km/h (1 Bft) 95,65 %
19.04.2021 09:20 7,0 C 6,7 C 5,0 C 96 % 1020,4 hPa 0,0 l/m 0 min 2 min 69 W/m 6,4 km/h (2 Bft) 97,87 %
19.04.2021 09:22 7,0 C 6,7 C 5,0 C 96 % 1020,4 hPa 0,0 l/m 0 min 2 min 67 W/m 12,9 km/h (3 Bft) 97,87 %
19.04.2021 09:24 7,0 C 6,7 C 5,0 C 96 % 1020,4 hPa 0,0 l/m 0 min 2 min 70 W/m 6,4 km/h (2 Bft) 97,87 %
19.04.2021 09:26 7,0 C 6,1 C 5,0 C 96 % 1020,4 hPa 0,0 l/m 0 min 2 min 79 W/m 3,2 km/h (1 Bft) 100,00 %
19.04.2021 09:28 7,0 C 6,7 C 5,0 C 96 % 1020,4 hPa 0,0 l/m 0 min 2 min 93 W/m 3,2 km/h (1 Bft) 100,00 %
19.04.2021 09:30 7,0 C 6,7 C 5,0 C 96 % 1020,4 hPa 0,2 l/m 0 min 2 min 111 W/m 3,2 km/h (1 Bft) 100,00 %
19.04.2021 09:32 7,0 C 6,7 C 5,0 C 96 % 1020,4 hPa 0,0 l/m 0 min 2 min 126 W/m 3,2 km/h (1 Bft) 97,83 %
19.04.2021 09:34 7,0 C 6,7 C 5,0 C 96 % 1020,3 hPa 0,0 l/m 0 min 2 min 134 W/m 3,2 km/h (1 Bft) 100,00 %
19.04.2021 09:36 7,0 C 6,7 C 5,0 C 96 % 1020,3 hPa 0,0 l/m 0 min 2 min 134 W/m 3,2 km/h (1 Bft) 100,00 %
19.04.2021 09:38 7,1 C 6,7 C 5,0 C 96 % 1020,3 hPa 0,0 l/m 0 min 2 min 134 W/m 6,4 km/h (2 Bft) 100,00 %
19.04.2021 09:40 7,1 C 6,7 C 5,0 C 96 % 1020,3 hPa 0,0 l/m 0 min 2 min 140 W/m 3,2 km/h (1 Bft) 100,00 %
19.04.2021 09:42 7,1 C 7,2 C 5,6 C 96 % 1020,3 hPa 0,0 l/m 0 min 2 min 147 W/m 6,4 km/h (2 Bft) 100,00 %
19.04.2021 09:44 7,2 C 6,7 C 5,6 C 96 % 1020,3 hPa 0,0 l/m 0 min 2 min 148 W/m 6,4 km/h (2 Bft) 100,00 %
19.04.2021 09:46 7,1 C 6,7 C 5,0 C 97 % 1020,3 hPa 0,0 l/m 0 min 2 min 147 W/m 9,7 km/h (2 Bft) 100,00 %
19.04.2021 09:48 7,1 C 6,7 C 5,0 C 97 % 1020,2 hPa 0,0 l/m 0 min 2 min 142 W/m 12,9 km/h (3 Bft) 100,00 %
19.04.2021 09:50 7,1 C 6,7 C 5,0 C 97 % 1020,2 hPa 0,0 l/m 0 min 0 min 136 W/m 6,4 km/h (2 Bft) 100,00 %
19.04.2021 09:52 7,2 C 6,7 C 5,0 C 97 % 1020,2 hPa 0,0 l/m 0 min 0 min 129 W/m 3,2 km/h (1 Bft) 100,00 %
19.04.2021 09:54 7,2 C 7,2 C 5,0 C 97 % 1020,2 hPa 0,0 l/m 0 min 0 min 126 W/m 6,4 km/h (2 Bft) 100,00 %
19.04.2021 09:56 7,2 C 6,7 C 5,0 C 97 % 1020,2 hPa 0,0 l/m 0 min 0 min 124 W/m 6,4 km/h (2 Bft) 100,00 %
19.04.2021 09:58 7,3 C 7,2 C 5,6 C 97 % 1020,2 hPa 0,0 l/m 0 min 0 min 127 W/m 3,2 km/h (1 Bft) 100,00 %
19.04.2021 10:00 7,3 C 7,2 C 5,6 C 97 % 1020,1 hPa 0,0 l/m 0 min 0 min 127 W/m 6,4 km/h (2 Bft) 100,00 %
19.04.2021 10:02 7,3 C 7,2 C 5,6 C 97 % 1020,2 hPa 0,0 l/m 0 min 0 min 119 W/m 6,4 km/h (2 Bft) 100,00 %
19.04.2021 10:04 7,4 C 7,2 C 5,6 C 97 % 1020,1 hPa 0,0 l/m 0 min 0 min 103 W/m 3,2 km/h (1 Bft) 100,00 %
19.04.2021 10:06 7,4 C 7,2 C 5,6 C 97 % 1020,2 hPa 0,0 l/m 0 min 0 min 96 W/m 3,2 km/h (1 Bft) 100,00 %
19.04.2021 10:08 7,5 C 7,2 C 5,6 C 97 % 1020,2 hPa 0,0 l/m 0 min 0 min 101 W/m 3,2 km/h (1 Bft) 100,00 %
19.04.2021 10:10 7,5 C 7,2 C 5,6 C 97 % 1020,1 hPa 0,0 l/m 0 min 0 min 112 W/m 3,2 km/h (1 Bft) 97,83 %
19.04.2021 10:12 7,5 C 7,2 C 5,6 C 97 % 1020,2 hPa 0,0 l/m 0 min 0 min 124 W/m 6,4 km/h (2 Bft) 100,00 %
19.04.2021 10:14 7,5 C 7,2 C 5,6 C 97 % 1020,2 hPa 0,0 l/m 0 min 0 min 132 W/m 6,4 km/h (2 Bft) 100,00 %
19.04.2021 10:16 7,5 C 7,2 C 5,6 C 97 % 1020,1 hPa 0,0 l/m 0 min 0 min 136 W/m 3,2 km/h (1 Bft) 100,00 %
19.04.2021 10:18 7,5 C 7,2 C 5,6 C 97 % 1020,1 hPa 0,0 l/m 0 min 0 min 135 W/m 3,2 km/h (1 Bft) 100,00 %
19.04.2021 10:20 7,6 C 7,2 C 5,6 C 97 % 1020,1 hPa 0,0 l/m 0 min 0 min 126 W/m 3,2 km/h (1 Bft) 95,74 %
19.04.2021 10:22 7,6 C 7,2 C 5,6 C 97 % 1020,1 hPa 0,0 l/m 0 min 0 min 121 W/m 3,2 km/h (1 Bft) 97,83 %
19.04.2021 10:24 7,6 C 7,2 C 5,6 C 97 % 1020,2 hPa 0,0 l/m 0 min 0 min 122 W/m 6,4 km/h (2 Bft) 97,83 %
19.04.2021 10:26 7,6 C 7,2 C 5,6 C 97 % 1020,2 hPa 0,0 l/m 0 min 0 min 123 W/m 3,2 km/h (1 Bft) 97,87 %
19.04.2021 10:28 7,6 C 7,8 C 5,6 C 97 % 1020,1 hPa 0,0 l/m 0 min 0 min 116 W/m 3,2 km/h (1 Bft) 97,87 %
19.04.2021 10:30 7,6 C 7,8 C 6,1 C 97 % 1020,1 hPa 0,0 l/m 0 min 0 min 102 W/m 3,2 km/h (1 Bft) 97,87 %
19.04.2021 10:32 7,6 C 7,8 C 6,1 C 97 % 1020,2 hPa 0,0 l/m 0 min 0 min 89 W/m 3,2 km/h (1 Bft) 97,87 %
19.04.2021 10:34 7,7 C 7,8 C 6,1 C 97 % 1020,3 hPa 0,0 l/m 0 min 0 min 82 W/m 3,2 km/h (1 Bft) 97,83 %
19.04.2021 10:36 7,7 C 7,8 C 6,1 C 97 % 1020,3 hPa 0,0 l/m 0 min 0 min 77 W/m 3,2 km/h (1 Bft) 95,74 %
19.04.2021 10:38 7,7 C 7,2 C 5,6 C 97 % 1020,3 hPa 0,0 l/m 0 min 0 min 74 W/m 0,0 km/h (0 Bft) 97,92 %
19.04.2021 10:40 7,8 C 7,2 C 5,6 C 97 % 1020,3 hPa 0,0 l/m 0 min 0 min 78 W/m 0,0 km/h (0 Bft) 97,87 %
19.04.2021 10:42 7,8 C 7,2 C 5,6 C 97 % 1020,3 hPa 0,0 l/m 0 min 0 min 92 W/m 3,2 km/h (1 Bft) 97,87 %
19.04.2021 10:44 7,7 C 7,2 C 6,1 C 97 % 1020,3 hPa 0,0 l/m 0 min 0 min 109 W/m 0,0 km/h (0 Bft) 95,74 %
19.04.2021 10:46 7,7 C 7,8 C 6,1 C 97 % 1020,3 hPa 0,0 l/m 0 min 0 min 120 W/m 3,2 km/h (1 Bft) 97,83 %
19.04.2021 10:48 7,7 C 7,8 C 6,1 C 97 % 1020,4 hPa 0,0 l/m 0 min 0 min 129 W/m 3,2 km/h (1 Bft) 95,74 %
19.04.2021 10:50 7,7 C 7,8 C 6,1 C 97 % 1020,4 hPa 0,0 l/m 0 min 0 min 125 W/m 0,0 km/h (0 Bft) 97,87 %
19.04.2021 10:52 7,8 C 7,8 C 6,1 C 97 % 1020,4 hPa 0,0 l/m 0 min 0 min 105 W/m 3,2 km/h (1 Bft) 97,87 %
19.04.2021 10:54 7,8 C 7,8 C 6,1 C 97 % 1020,4 hPa 0,0 l/m 0 min 0 min 102 W/m 6,4 km/h (2 Bft) 97,87 %
19.04.2021 10:56 7,8 C 7,8 C 6,1 C 97 % 1020,4 hPa 0,0 l/m 0 min 0 min 107 W/m 6,4 km/h (2 Bft) 95,74 %
19.04.2021 10:58 7,8 C 7,8 C 6,1 C 97 % 1020,5 hPa 0,0 l/m 0 min 0 min 100 W/m 0,0 km/h (0 Bft) 95,65 %
19.04.2021 11:00 7,8 C 7,8 C 6,1 C 97 % 1020,4 hPa 0,0 l/m 0 min 0 min 86 W/m 3,2 km/h (1 Bft) 95,74 %
19.04.2021 11:02 7,8 C 7,8 C 6,1 C 97 % 1020,5 hPa 0,0 l/m 0 min 0 min 70 W/m 3,2 km/h (1 Bft) 95,74 %
19.04.2021 11:04 7,8 C 7,8 C 6,1 C 97 % 1020,5 hPa 0,0 l/m 0 min 0 min 60 W/m 0,0 km/h (0 Bft) 95,74 %
19.04.2021 11:06 7,8 C 7,8 C 6,1 C 97 % 1020,5 hPa 0,0 l/m 0 min 0 min 54 W/m 0,0 km/h (0 Bft) 95,74 %
19.04.2021 11:08 7,8 C 7,8 C 6,1 C 97 % 1020,5 hPa 0,0 l/m 0 min 0 min 54 W/m 0,0 km/h (0 Bft) 95,74 %
19.04.2021 11:10 7,8 C 7,2 C 6,1 C 97 % 1020,5 hPa 0,0 l/m 0 min 0 min 60 W/m 0,0 km/h (0 Bft) 91,30 %
19.04.2021 11:12 7,8 C 7,8 C 6,1 C 97 % 1020,5 hPa 0,0 l/m 0 min 0 min 61 W/m 3,2 km/h (1 Bft) 93,62 %
19.04.2021 11:14 7,8 C 7,8 C 6,1 C 97 % 1020,5 hPa 0,0 l/m 0 min 0 min 56 W/m 3,2 km/h (1 Bft) 93,62 %
19.04.2021 11:16 7,9 C 7,8 C 6,1 C 97 % 1020,5 hPa 0,0 l/m 0 min 0 min 52 W/m 0,0 km/h (0 Bft) 95,74 %
19.04.2021 11:18 7,9 C 7,8 C 6,1 C 97 % 1020,6 hPa 0,0 l/m 0 min 0 min 52 W/m 0,0 km/h (0 Bft) 93,62 %
19.04.2021 11:20 7,9 C 7,8 C 6,1 C 97 % 1020,6 hPa 0,0 l/m 0 min 0 min 54 W/m 3,2 km/h (1 Bft) 95,74 %
19.04.2021 11:22 7,9 C 7,8 C 6,1 C 97 % 1020,7 hPa 0,0 l/m 0 min 0 min 56 W/m 3,2 km/h (1 Bft) 95,65 %
19.04.2021 11:24 7,9 C 7,8 C 6,1 C 97 % 1020,7 hPa 0,0 l/m 0 min 0 min 55 W/m 0,0 km/h (0 Bft) 93,62 %
19.04.2021 11:26 7,9 C 7,8 C 6,1 C 97 % 1020,7 hPa 0,0 l/m 0 min 0 min 55 W/m 3,2 km/h (1 Bft) 89,36 %
19.04.2021 11:28 7,9 C 7,8 C 6,1 C 97 % 1020,7 hPa 0,0 l/m 0 min 0 min 55 W/m 0,0 km/h (0 Bft) 93,62 %
19.04.2021 11:30 7,9 C 7,8 C 6,1 C 97 % 1020,7 hPa 0,0 l/m 0 min 0 min 52 W/m 3,2 km/h (1 Bft) 93,62 %
19.04.2021 11:32 7,9 C 7,8 C 6,1 C 97 % 1020,7 hPa 0,0 l/m 0 min 0 min 48 W/m 3,2 km/h (1 Bft) 93,62 %
19.04.2021 11:34 7,9 C 7,8 C 6,1 C 97 % 1020,7 hPa 0,0 l/m 0 min 0 min 46 W/m 3,2 km/h (1 Bft) 95,65 %
19.04.2021 11:36 7,9 C 7,8 C 6,1 C 97 % 1020,7 hPa 0,0 l/m 0 min 0 min 44 W/m 0,0 km/h (0 Bft) 91,49 %
19.04.2021 11:38 7,9 C 7,8 C 6,1 C 97 % 1020,8 hPa 0,0 l/m 0 min 0 min 47 W/m 3,2 km/h (1 Bft) 93,62 %
19.04.2021 11:40 7,9 C 7,8 C 6,1 C 97 % 1020,7 hPa 0,0 l/m 0 min 0 min 54 W/m 6,4 km/h (2 Bft) 95,74 %
19.04.2021 11:42 7,9 C 7,8 C 6,1 C 97 % 1020,7 hPa 0,0 l/m 0 min 0 min 62 W/m 3,2 km/h (1 Bft) 93,62 %
19.04.2021 11:44 8,0 C 7,8 C 6,1 C 97 % 1020,7 hPa 0,0 l/m 0 min 0 min 65 W/m 3,2 km/h (1 Bft) 97,83 %
19.04.2021 11:46 8,0 C 7,8 C 6,1 C 97 % 1020,7 hPa 0,0 l/m 0 min 0 min 69 W/m 3,2 km/h (1 Bft) 93,62 %
19.04.2021 11:48 8,0 C 7,8 C 6,1 C 97 % 1020,7 hPa 0,0 l/m 0 min 0 min 75 W/m 3,2 km/h (1 Bft) 97,87 %
19.04.2021 11:50 8,0 C 7,8 C 6,1 C 97 % 1020,7 hPa 0,0 l/m 0 min 0 min 91 W/m 3,2 km/h (1 Bft) 97,87 %
19.04.2021 11:52 8,0 C 7,8 C 6,1 C 97 % 1020,7 hPa 0,0 l/m 0 min 0 min 114 W/m 3,2 km/h (1 Bft) 97,87 %
19.04.2021 11:54 8,0 C 7,8 C 6,1 C 97 % 1020,6 hPa 0,0 l/m 0 min 0 min 123 W/m 3,2 km/h (1 Bft) 97,87 %
19.04.2021 11:56 8,0 C 8,3 C 6,1 C 97 % 1020,6 hPa 0,0 l/m 0 min 0 min 128 W/m 3,2 km/h (1 Bft) 97,83 %
19.04.2021 11:58 8,0 C 8,3 C 6,7 C 97 % 1020,6 hPa 0,0 l/m 0 min 0 min 155 W/m 3,2 km/h (1 Bft) 95,74 %
19.04.2021 12:00 8,1 C 8,3 C 6,1 C 97 % 1020,6 hPa 0,0 l/m 0 min 0 min 173 W/m 3,2 km/h (1 Bft) 97,87 %
19.04.2021 12:02 8,1 C 8,3 C 6,7 C 97 % 1020,6 hPa 0,0 l/m 0 min 0 min 171 W/m 3,2 km/h (1 Bft) 97,87 %
19.04.2021 12:04 8,1 C 8,3 C 6,1 C 97 % 1020,6 hPa 0,0 l/m 0 min 0 min 156 W/m 3,2 km/h (1 Bft) 97,87 %
19.04.2021 12:08 8,1 C 8,3 C 6,7 C 97 % 1020,6 hPa 0,0 l/m 0 min 0 min 142 W/m 6,4 km/h (2 Bft) 96,84 %
19.04.2021 12:10 8,2 C 8,3 C 6,7 C 97 % 1020,7 hPa 0,0 l/m 0 min 0 min 153 W/m 3,2 km/h (1 Bft) 95,74 %
19.04.2021 12:12 8,2 C 8,3 C 6,7 C 97 % 1020,6 hPa 0,0 l/m 0 min 0 min 158 W/m 6,4 km/h (2 Bft) 100,00 %
19.04.2021 12:14 8,1 C 8,3 C 6,1 C 97 % 1020,6 hPa 0,0 l/m 0 min 0 min 142 W/m 3,2 km/h (1 Bft) 97,87 %
19.04.2021 12:16 8,1 C 8,3 C 6,7 C 97 % 1020,6 hPa 0,0 l/m 0 min 0 min 138 W/m 6,4 km/h (2 Bft) 97,87 %
19.04.2021 12:18 8,2 C 8,3 C 6,7 C 97 % 1020,6 hPa 0,0 l/m 0 min 0 min 151 W/m 3,2 km/h (1 Bft) 100,00 %
19.04.2021 12:20 8,2 C 8,3 C 6,7 C 97 % 1020,6 hPa 0,0 l/m 0 min 0 min 162 W/m 6,4 km/h (2 Bft) 100,00 %
19.04.2021 12:22 8,2 C 8,9 C 6,7 C 97 % 1020,6 hPa 0,0 l/m 0 min 0 min 184 W/m 0,0 km/h (0 Bft) 97,87 %
19.04.2021 12:24 8,3 C 8,9 C 6,7 C 97 % 1020,6 hPa 0,0 l/m 0 min 0 min 222 W/m 0,0 km/h (0 Bft) 100,00 %
19.04.2021 12:26 8,3 C 8,9 C 6,7 C 97 % 1020,5 hPa 0,0 l/m 0 min 0 min 242 W/m 0,0 km/h (0 Bft) 100,00 %
19.04.2021 12:28 8,3 C 9,4 C 7,3 C 97 % 1020,6 hPa 0,0 l/m 0 min 0 min 258 W/m 0,0 km/h (0 Bft) 100,00 %
19.04.2021 12:30 8,4 C 9,4 C 7,3 C 97 % 1020,5 hPa 0,0 l/m 0 min 0 min 277 W/m 3,2 km/h (1 Bft) 95,74 %
19.04.2021 12:32 8,5 C 9,4 C 7,3 C 97 % 1020,5 hPa 0,0 l/m 0 min 0 min 280 W/m 6,4 km/h (2 Bft) 100,00 %
19.04.2021 12:34 8,5 C 9,4 C 7,3 C 97 % 1020,5 hPa 0,0 l/m 0 min 0 min 277 W/m 3,2 km/h (1 Bft) 100,00 %
19.04.2021 12:36 8,6 C 9,4 C 7,3 C 97 % 1020,5 hPa 0,0 l/m 0 min 0 min 285 W/m 3,2 km/h (1 Bft) 97,87 %
19.04.2021 12:38 8,6 C 9,4 C 7,3 C 97 % 1020,5 hPa 0,0 l/m 0 min 0 min 289 W/m 3,2 km/h (1 Bft) 100,00 %
19.04.2021 12:40 8,6 C 9,4 C 7,3 C 97 % 1020,5 hPa 0,0 l/m 0 min 0 min 275 W/m 3,2 km/h (1 Bft) 100,00 %
19.04.2021 12:42 8,6 C 10,0 C 7,3 C 97 % 1020,5 hPa 0,0 l/m 0 min 0 min 243 W/m 3,2 km/h (1 Bft) 100,00 %
19.04.2021 12:44 8,6 C 9,4 C 7,3 C 97 % 1020,5 hPa 0,0 l/m 0 min 0 min 211 W/m 3,2 km/h (1 Bft) 100,00 %
19.04.2021 12:46 8,6 C 9,4 C 7,3 C 97 % 1020,6 hPa 0,0 l/m 0 min 0 min 189 W/m 3,2 km/h (1 Bft) 100,00 %
19.04.2021 12:48 8,7 C 9,4 C 7,3 C 96 % 1020,6 hPa 0,0 l/m 0 min 0 min 189 W/m 3,2 km/h (1 Bft) 100,00 %
19.04.2021 12:50 8,7 C 9,4 C 7,3 C 96 % 1020,6 hPa 0,0 l/m 0 min 0 min 188 W/m 6,4 km/h (2 Bft) 100,00 %
19.04.2021 12:52 8,8 C 9,4 C 6,7 C 96 % 1020,5 hPa 0,0 l/m 0 min 0 min 179 W/m 6,4 km/h (2 Bft) 100,00 %
19.04.2021 12:54 8,8 C 9,4 C 6,7 C 96 % 1020,5 hPa 0,0 l/m 0 min 0 min 153 W/m 3,2 km/h (1 Bft) 100,00 %
19.04.2021 12:56 8,8 C 8,9 C 7,3 C 96 % 1020,6 hPa 0,0 l/m 0 min 0 min 153 W/m 0,0 km/h (0 Bft) 100,00 %
19.04.2021 12:58 8,8 C 9,4 C 7,3 C 96 % 1020,5 hPa 0,0 l/m 0 min 0 min 231 W/m 3,2 km/h (1 Bft) 100,00 %
19.04.2021 13:00 8,8 C 9,4 C 7,3 C 96 % 1020,5 hPa 0,0 l/m 0 min 0 min 320 W/m 6,4 km/h (2 Bft) 100,00 %
19.04.2021 13:02 8,8 C 10,0 C 7,8 C 96 % 1020,5 hPa 0,0 l/m 0 min 0 min 367 W/m 3,2 km/h (1 Bft) 100,00 %
19.04.2021 13:04 8,9 C 10,6 C 7,8 C 96 % 1020,4 hPa 0,0 l/m 2 min 0 min 397 W/m 3,2 km/h (1 Bft) 100,00 %
19.04.2021 13:06 9,0 C 11,1 C 8,4 C 96 % 1020,4 hPa 0,0 l/m 2 min 0 min 479 W/m 3,2 km/h (1 Bft) 100,00 %
19.04.2021 13:08 9,1 C 11,7 C 8,9 C 96 % 1020,3 hPa 0,0 l/m 2 min 0 min 591 W/m 3,2 km/h (1 Bft) 100,00 %
19.04.2021 13:10 9,3 C 12,2 C 8,9 C 96 % 1020,3 hPa 0,0 l/m 2 min 0 min 473 W/m 6,4 km/h (2 Bft) 100,00 %
19.04.2021 13:12 9,4 C 12,2 C 8,9 C 96 % 1020,3 hPa 0,0 l/m 2 min 0 min 413 W/m 3,2 km/h (1 Bft) 100,00 %
19.04.2021 13:14 9,5 C 12,2 C 8,9 C 96 % 1020,3 hPa 0,0 l/m 2 min 0 min 411 W/m 6,4 km/h (2 Bft) 100,00 %
19.04.2021 13:16 9,6 C 13,9 C 10,0 C 96 % 1020,3 hPa 0,0 l/m 2 min 0 min 550 W/m 3,2 km/h (1 Bft) 100,00 %
19.04.2021 13:18 9,7 C 14,4 C 10,0 C 96 % 1020,3 hPa 0,0 l/m 2 min 0 min 918 W/m 3,2 km/h (1 Bft) 100,00 %
19.04.2021 13:20 9,8 C 14,4 C 10,0 C 95 % 1020,4 hPa 0,0 l/m 2 min 0 min 560 W/m 3,2 km/h (1 Bft) 100,00 %
19.04.2021 13:22 10,0 C 14,4 C 10,0 C 95 % 1020,4 hPa 0,0 l/m 2 min 0 min 459 W/m 6,4 km/h (2 Bft) 100,00 %
19.04.2021 13:24 10,2 C 15,0 C 10,6 C 95 % 1020,4 hPa 0,0 l/m 2 min 0 min 499 W/m 9,7 km/h (2 Bft) 93,48 %
19.04.2021 13:26 10,3 C 15,0 C 10,6 C 95 % 1020,3 hPa 0,0 l/m 2 min 0 min 500 W/m 3,2 km/h (1 Bft) 97,87 %
19.04.2021 13:28 10,4 C 15,0 C 10,6 C 95 % 1020,3 hPa 0,0 l/m 2 min 0 min 501 W/m 3,2 km/h (1 Bft) 100,00 %
19.04.2021 13:30 10,5 C 15,6 C 11,1 C 94 % 1020,3 hPa 0,0 l/m 2 min 0 min 494 W/m 3,2 km/h (1 Bft) 100,00 %
19.04.2021 13:32 10,7 C 13,9 C 10,0 C 94 % 1020,4 hPa 0,0 l/m 2 min 0 min 458 W/m 6,4 km/h (2 Bft) 92,45 %
19.04.2021 13:34 10,7 C 13,9 C 10,0 C 93 % 1020,3 hPa 0,0 l/m 0 min 0 min 342 W/m 6,4 km/h (2 Bft) 95,74 %
19.04.2021 13:36 10,8 C 13,3 C 9,5 C 93 % 1020,3 hPa 0,0 l/m 0 min 0 min 307 W/m 6,4 km/h (2 Bft) 100,00 %
19.04.2021 13:38 10,8 C 13,3 C 8,9 C 92 % 1020,3 hPa 0,0 l/m 0 min 0 min 321 W/m 6,4 km/h (2 Bft) 89,36 %
19.04.2021 13:40 10,8 C 12,8 C 8,9 C 92 % 1020,3 hPa 0,0 l/m 0 min 0 min 372 W/m 9,7 km/h (2 Bft) 80,85 %
19.04.2021 13:42 10,8 C 12,8 C 8,9 C 91 % 1020,3 hPa 0,0 l/m 2 min 0 min 439 W/m 9,7 km/h (2 Bft) 80,85 %
19.04.2021 13:44 10,8 C 12,8 C 8,9 C 91 % 1020,3 hPa 0,0 l/m 2 min 0 min 400 W/m 3,2 km/h (1 Bft) 86,96 %
19.04.2021 13:46 10,8 C 12,8 C 8,9 C 91 % 1020,3 hPa 0,0 l/m 2 min 0 min 401 W/m 6,4 km/h (2 Bft) 78,72 %
19.04.2021 13:48 10,8 C 12,8 C 8,9 C 90 % 1020,3 hPa 0,0 l/m 2 min 0 min 423 W/m 6,4 km/h (2 Bft) 85,11 %
19.04.2021 13:50 10,8 C 13,3 C 8,9 C 90 % 1020,4 hPa 0,0 l/m 2 min 0 min 429 W/m 6,4 km/h (2 Bft) 97,87 %
19.04.2021 13:52 10,9 C 13,9 C 8,9 C 90 % 1020,4 hPa 0,0 l/m 0 min 0 min 358 W/m 6,4 km/h (2 Bft) 97,87 %
19.04.2021 13:54 11,0 C 13,3 C 8,9 C 90 % 1020,4 hPa 0,0 l/m 0 min 0 min 260 W/m 3,2 km/h (1 Bft) 97,87 %
19.04.2021 13:56 11,1 C 13,3 C 8,9 C 90 % 1020,4 hPa 0,0 l/m 0 min 0 min 213 W/m 6,4 km/h (2 Bft) 95,65 %
19.04.2021 13:58 11,1 C 13,3 C 8,9 C 90 % 1020,4 hPa 0,0 l/m 0 min 0 min 198 W/m 6,4 km/h (2 Bft) 95,74 %
19.04.2021 14:00 11,3 C 13,9 C 8,9 C 90 % 1020,4 hPa 0,0 l/m 0 min 0 min 256 W/m 6,4 km/h (2 Bft) 97,87 %
19.04.2021 14:02 11,3 C 13,9 C 8,9 C 89 % 1020,3 hPa 0,0 l/m 2 min 0 min 407 W/m 3,2 km/h (1 Bft) 95,74 %
19.04.2021 14:04 11,4 C 14,4 C 9,5 C 89 % 1020,3 hPa 0,0 l/m 2 min 0 min 404 W/m 3,2 km/h (1 Bft) 97,87 %
19.04.2021 14:06 11,5 C 15,0 C 9,5 C 89 % 1020,3 hPa 0,0 l/m 2 min 0 min 433 W/m 6,4 km/h (2 Bft) 97,83 %
19.04.2021 14:08 11,5 C 15,0 C 10,0 C 89 % 1020,3 hPa 0,0 l/m 2 min 0 min 428 W/m 6,4 km/h (2 Bft) 97,92 %
19.04.2021 14:10 11,6 C 14,4 C 10,0 C 89 % 1020,3 hPa 0,0 l/m 2 min 0 min 468 W/m 6,4 km/h (2 Bft) 97,87 %
19.04.2021 14:12 11,6 C 14,4 C 10,6 C 88 % 1020,2 hPa 0,0 l/m 2 min 0 min 554 W/m 9,7 km/h (2 Bft) 95,74 %
19.04.2021 14:14 11,6 C 13,9 C 10,6 C 88 % 1020,1 hPa 0,0 l/m 2 min 0 min 436 W/m 9,7 km/h (2 Bft) 97,87 %
19.04.2021 14:16 11,7 C 13,9 C 10,6 C 88 % 1020,2 hPa 0,0 l/m 2 min 0 min 486 W/m 9,7 km/h (2 Bft) 97,87 %
19.04.2021 14:18 11,7 C 14,4 C 10,6 C 88 % 1020,2 hPa 0,0 l/m 2 min 0 min 545 W/m 6,4 km/h (2 Bft) 97,83 %
19.04.2021 14:20 11,8 C 15,6 C 10,6 C 88 % 1020,1 hPa 0,0 l/m 2 min 0 min 606 W/m 6,4 km/h (2 Bft) 97,87 %
19.04.2021 14:22 11,9 C 15,6 C 10,6 C 88 % 1020,2 hPa 0,0 l/m 2 min 0 min 549 W/m 6,4 km/h (2 Bft) 93,62 %
19.04.2021 14:24 11,9 C 15,0 C 10,6 C 88 % 1020,1 hPa 0,0 l/m 0 min 0 min 300 W/m 3,2 km/h (1 Bft) 93,62 %
19.04.2021 14:26 11,9 C 14,4 C 10,6 C 87 % 1020,2 hPa 0,0 l/m 0 min 0 min 299 W/m 3,2 km/h (1 Bft) 93,62 %
19.04.2021 14:28 11,9 C 14,4 C 10,6 C 86 % 1020,1 hPa 0,0 l/m 0 min 0 min 317 W/m 6,4 km/h (2 Bft) 100,00 %
19.04.2021 14:30 11,9 C 14,4 C 10,6 C 86 % 1020,1 hPa 0,0 l/m 0 min 0 min 314 W/m 6,4 km/h (2 Bft) 100,00 %
19.04.2021 14:32 11,9 C 15,6 C 10,6 C 85 % 1020,1 hPa 0,0 l/m 0 min 0 min 325 W/m 3,2 km/h (1 Bft) 97,87 %
19.04.2021 14:34 12,0 C 17,2 C 11,1 C 85 % 1020,1 hPa 0,0 l/m 2 min 0 min 975 W/m 6,4 km/h (2 Bft) 95,74 %
19.04.2021 14:36 12,1 C 17,2 C 11,1 C 85 % 1020,1 hPa 0,0 l/m 2 min 0 min 984 W/m 6,4 km/h (2 Bft) 97,87 %
19.04.2021 14:38 12,3 C 18,3 C 11,1 C 85 % 1020,0 hPa 0,0 l/m 2 min 0 min 984 W/m 9,7 km/h (2 Bft) 97,87 %
19.04.2021 14:40 12,5 C 18,3 C 11,1 C 85 % 1020,1 hPa 0,0 l/m 2 min 0 min 1013 W/m 9,7 km/h (2 Bft) 91,49 %
19.04.2021 14:42 12,8 C 19,4 C 11,7 C 86 % 1020,0 hPa 0,0 l/m 2 min 0 min 1014 W/m 9,7 km/h (2 Bft) 91,30 %
19.04.2021 14:44 12,9 C 19,4 C 11,7 C 85 % 1020,0 hPa 0,0 l/m 2 min 0 min 998 W/m 6,4 km/h (2 Bft) 95,74 %
19.04.2021 14:46 13,1 C 19,4 C 12,3 C 85 % 1020,0 hPa 0,0 l/m 2 min 0 min 998 W/m 12,9 km/h (3 Bft) 93,62 %
19.04.2021 14:48 13,1 C 18,9 C 11,7 C 84 % 1020,0 hPa 0,0 l/m 2 min 0 min 985 W/m 12,9 km/h (3 Bft) 95,74 %
19.04.2021 14:50 13,3 C 19,4 C 12,3 C 84 % 1020,0 hPa 0,0 l/m 2 min 0 min 809 W/m 12,9 km/h (3 Bft) 95,74 %
19.04.2021 14:52 13,4 C 18,9 C 12,3 C 84 % 1020,0 hPa 0,0 l/m 2 min 0 min 491 W/m 16,1 km/h (3 Bft) 93,62 %
19.04.2021 14:54 13,4 C 18,3 C 12,3 C 83 % 1020,0 hPa 0,0 l/m 2 min 0 min 405 W/m 12,9 km/h (3 Bft) 95,65 %
19.04.2021 14:56 13,3 C 16,7 C 11,7 C 82 % 1020,0 hPa 0,0 l/m 2 min 0 min 414 W/m 9,7 km/h (2 Bft) 95,74 %
19.04.2021 14:58 13,3 C 16,7 C 11,7 C 82 % 1020,0 hPa 0,0 l/m 2 min 0 min 414 W/m 9,7 km/h (2 Bft) 95,74 %
19.04.2021 15:00 13,2 C 16,7 C 11,7 C 82 % 1020,0 hPa 0,0 l/m 2 min 0 min 602 W/m 6,4 km/h (2 Bft) 95,74 %
19.04.2021 15:02 13,2 C 17,2 C 11,7 C 82 % 1020,0 hPa 0,0 l/m 2 min 0 min 987 W/m 9,7 km/h (2 Bft) 91,49 %
19.04.2021 15:04 13,1 C 17,8 C 11,7 C 82 % 1020,0 hPa 0,0 l/m 2 min 0 min 972 W/m 6,4 km/h (2 Bft) 91,49 %
19.04.2021 15:06 13,1 C 17,8 C 11,7 C 82 % 1020,0 hPa 0,0 l/m 2 min 0 min 584 W/m 9,7 km/h (2 Bft) 95,65 %
19.04.2021 15:08 13,0 C 16,7 C 11,7 C 81 % 1019,9 hPa 0,0 l/m 2 min 0 min 420 W/m 12,9 km/h (3 Bft) 95,83 %
19.04.2021 15:10 13,0 C 16,1 C 11,7 C 82 % 1019,9 hPa 0,0 l/m 2 min 0 min 358 W/m 9,7 km/h (2 Bft) 91,49 %
19.04.2021 15:12 12,9 C 15,0 C 11,1 C 81 % 1019,9 hPa 0,0 l/m 2 min 0 min 350 W/m 6,4 km/h (2 Bft) 95,74 %
19.04.2021 15:14 12,9 C 15,0 C 11,1 C 82 % 1019,9 hPa 0,0 l/m 2 min 0 min 355 W/m 12,9 km/h (3 Bft) 95,83 %
19.04.2021 15:16 12,8 C 14,4 C 11,1 C 82 % 1020,0 hPa 0,0 l/m 0 min 0 min 335 W/m 6,4 km/h (2 Bft) 95,74 %
19.04.2021 15:18 12,9 C 15,0 C 11,1 C 82 % 1019,9 hPa 0,0 l/m 2 min 0 min 361 W/m 3,2 km/h (1 Bft) 95,65 %
19.04.2021 15:20 12,9 C 15,6 C 11,7 C 83 % 1019,9 hPa 0,0 l/m 2 min 0 min 364 W/m 16,1 km/h (3 Bft) 95,74 %
19.04.2021 15:22 13,0 C 17,2 C 11,7 C 83 % 1019,9 hPa 0,0 l/m 2 min 0 min 740 W/m 6,4 km/h (2 Bft) 95,74 %
19.04.2021 15:24 13,1 C 17,8 C 12,3 C 82 % 1019,9 hPa 0,0 l/m 2 min 0 min 704 W/m 6,4 km/h (2 Bft) 93,62 %
19.04.2021 15:26 13,3 C 18,9 C 12,3 C 82 % 1019,9 hPa 0,0 l/m 2 min 0 min 702 W/m 12,9 km/h (3 Bft) 95,74 %
19.04.2021 15:28 13,3 C 17,8 C 12,3 C 80 % 1019,9 hPa 0,0 l/m 2 min 0 min 699 W/m 12,9 km/h (3 Bft) 95,74 %
19.04.2021 15:30 13,3 C 18,9 C 12,3 C 81 % 1019,9 hPa 0,0 l/m 2 min 0 min 934 W/m 3,2 km/h (1 Bft) 97,30 %
19.04.2021 15:32 13,4 C 18,9 C 12,3 C 80 % 1019,8 hPa 0,0 l/m 2 min 0 min 913 W/m 9,7 km/h (2 Bft) 95,74 %
19.04.2021 15:34 13,6 C 18,9 C 12,3 C 80 % 1019,8 hPa 0,0 l/m 2 min 0 min 837 W/m 6,4 km/h (2 Bft) 95,74 %
19.04.2021 15:36 13,7 C 19,4 C 12,3 C 79 % 1019,8 hPa 0,0 l/m 2 min 0 min 554 W/m 6,4 km/h (2 Bft) 95,74 %
19.04.2021 15:38 13,8 C 20,0 C 12,3 C 78 % 1019,8 hPa 0,0 l/m 2 min 0 min 840 W/m 9,7 km/h (2 Bft) 92,45 %
19.04.2021 15:40 13,9 C 20,0 C 12,8 C 78 % 1019,8 hPa 0,0 l/m 2 min 0 min 446 W/m 9,7 km/h (2 Bft) 95,74 %
19.04.2021 15:42 14,0 C 19,4 C 12,8 C 77 % 1019,8 hPa 0,0 l/m 2 min 0 min 802 W/m 9,7 km/h (2 Bft) 97,83 %
19.04.2021 15:44 14,0 C 18,9 C 12,3 C 77 % 1019,7 hPa 0,0 l/m 2 min 0 min 934 W/m 6,4 km/h (2 Bft) 97,87 %
19.04.2021 15:46 14,0 C 19,4 C 12,8 C 79 % 1019,7 hPa 0,0 l/m 2 min 0 min 822 W/m 9,7 km/h (2 Bft) 95,74 %
19.04.2021 15:48 14,2 C 18,9 C 12,8 C 78 % 1019,7 hPa 0,0 l/m 2 min 0 min 513 W/m 6,4 km/h (2 Bft) 97,87 %
19.04.2021 15:50 14,2 C 18,3 C 12,8 C 78 % 1019,6 hPa 0,0 l/m 2 min 0 min 518 W/m 9,7 km/h (2 Bft) 97,87 %
19.04.2021 15:52 14,1 C 17,2 C 12,8 C 77 % 1019,6 hPa 0,0 l/m 2 min 0 min 546 W/m 6,4 km/h (2 Bft) 95,74 %
19.04.2021 15:54 14,0 C 16,7 C 12,3 C 77 % 1019,6 hPa 0,0 l/m 2 min 0 min 425 W/m 6,4 km/h (2 Bft) 97,83 %
19.04.2021 15:56 13,9 C 15,6 C 12,3 C 77 % 1019,6 hPa 0,0 l/m 2 min 0 min 350 W/m 6,4 km/h (2 Bft) 100,00 %
19.04.2021 15:58 13,9 C 15,6 C 12,3 C 78 % 1019,6 hPa 0,0 l/m 0 min 0 min 308 W/m 9,7 km/h (2 Bft) 100,00 %
19.04.2021 16:00 13,7 C 15,0 C 11,7 C 77 % 1019,6 hPa 0,0 l/m 0 min 0 min 284 W/m 6,4 km/h (2 Bft) 100,00 %
19.04.2021 16:02 13,7 C 14,4 C 11,7 C 78 % 1019,6 hPa 0,0 l/m 0 min 0 min 268 W/m 3,2 km/h (1 Bft) 97,92 %
19.04.2021 16:04 13,7 C 14,4 C 11,7 C 78 % 1019,6 hPa 0,0 l/m 0 min 0 min 264 W/m 3,2 km/h (1 Bft) 97,87 %
19.04.2021 16:06 13,7 C 14,4 C 11,7 C 78 % 1019,6 hPa 0,0 l/m 0 min 0 min 250 W/m 6,4 km/h (2 Bft) 97,83 %
19.04.2021 16:08 13,8 C 14,4 C 11,7 C 79 % 1019,6 hPa 0,0 l/m 0 min 0 min 225 W/m 6,4 km/h (2 Bft) 100,00 %
19.04.2021 16:10 13,8 C 14,4 C 11,7 C 78 % 1019,6 hPa 0,0 l/m 0 min 0 min 195 W/m 6,4 km/h (2 Bft) 100,00 %
19.04.2021 16:12 13,8 C 14,4 C 11,7 C 78 % 1019,5 hPa 0,0 l/m 0 min 0 min 171 W/m 6,4 km/h (2 Bft) 97,87 %
19.04.2021 16:14 13,7 C 13,9 C 11,7 C 77 % 1019,5 hPa 0,0 l/m 0 min 0 min 153 W/m 6,4 km/h (2 Bft) 97,87 %
19.04.2021 16:16 13,7 C 13,9 C 11,1 C 77 % 1019,5 hPa 0,0 l/m 0 min 0 min 140 W/m 3,2 km/h (1 Bft) 97,83 %
19.04.2021 16:18 13,6 C 13,3 C 11,1 C 77 % 1019,5 hPa 0,0 l/m 0 min 0 min 127 W/m 6,4 km/h (2 Bft) 97,87 %
19.04.2021 16:20 13,5 C 13,3 C 11,1 C 77 % 1019,5 hPa 0,0 l/m 0 min 0 min 119 W/m 3,2 km/h (1 Bft) 97,87 %
19.04.2021 16:22 13,5 C 13,3 C 11,1 C 78 % 1019,5 hPa 0,0 l/m 0 min 0 min 119 W/m 6,4 km/h (2 Bft) 95,74 %
19.04.2021 16:24 13,5 C 13,3 C 11,1 C 78 % 1019,5 hPa 0,0 l/m 0 min 0 min 120 W/m 6,4 km/h (2 Bft) 97,87 %
19.04.2021 16:26 13,4 C 13,3 C 10,6 C 77 % 1019,5 hPa 0,0 l/m 0 min 0 min 124 W/m 3,2 km/h (1 Bft) 95,74 %
19.04.2021 16:28 13,3 C 12,8 C 10,6 C 77 % 1019,5 hPa 0,0 l/m 0 min 0 min 127 W/m 3,2 km/h (1 Bft) 97,83 %
19.04.2021 16:30 13,3 C 13,3 C 10,6 C 78 % 1019,5 hPa 0,0 l/m 0 min 0 min 128 W/m 3,2 km/h (1 Bft) 97,87 %
19.04.2021 16:32 13,3 C 13,3 C 10,6 C 78 % 1019,5 hPa 0,0 l/m 0 min 0 min 127 W/m 3,2 km/h (1 Bft) 97,92 %
19.04.2021 16:34 13,3 C 13,3 C 10,6 C 78 % 1019,5 hPa 0,0 l/m 0 min 0 min 129 W/m 3,2 km/h (1 Bft) 97,87 %
19.04.2021 16:36 13,3 C 13,3 C 11,1 C 78 % 1019,4 hPa 0,0 l/m 0 min 0 min 130 W/m 6,4 km/h (2 Bft) 93,62 %
19.04.2021 16:38 13,3 C 13,3 C 11,1 C 78 % 1019,4 hPa 0,0 l/m 0 min 0 min 127 W/m 3,2 km/h (1 Bft) 95,74 %
19.04.2021 16:40 13,3 C 13,9 C 11,1 C 78 % 1019,4 hPa 0,0 l/m 0 min 0 min 123 W/m 6,4 km/h (2 Bft) 97,83 %
19.04.2021 16:42 13,3 C 13,9 C 11,1 C 79 % 1019,4 hPa 0,0 l/m 0 min 0 min 121 W/m 6,4 km/h (2 Bft) 97,87 %
19.04.2021 16:44 13,3 C 13,9 C 10,6 C 79 % 1019,4 hPa 0,0 l/m 0 min 0 min 122 W/m 3,2 km/h (1 Bft) 97,87 %
19.04.2021 16:46 13,3 C 13,3 C 10,6 C 79 % 1019,4 hPa 0,0 l/m 0 min 0 min 119 W/m 6,4 km/h (2 Bft) 97,87 %
19.04.2021 16:48 13,3 C 13,3 C 10,6 C 78 % 1019,3 hPa 0,0 l/m 0 min 0 min 111 W/m 6,4 km/h (2 Bft) 95,74 %
19.04.2021 16:50 13,3 C 13,3 C 10,6 C 78 % 1019,4 hPa 0,0 l/m 0 min 0 min 106 W/m 3,2 km/h (1 Bft) 97,87 %
19.04.2021 16:52 13,3 C 13,3 C 10,6 C 78 % 1019,3 hPa 0,0 l/m 0 min 0 min 105 W/m 6,4 km/h (2 Bft) 97,83 %
19.04.2021 16:54 13,2 C 13,3 C 10,6 C 78 % 1019,3 hPa 0,0 l/m 0 min 0 min 107 W/m 6,4 km/h (2 Bft) 97,87 %
19.04.2021 16:56 13,2 C 13,3 C 10,6 C 78 % 1019,3 hPa 0,0 l/m 0 min 0 min 111 W/m 3,2 km/h (1 Bft) 97,87 %
19.04.2021 16:58 13,1 C 13,3 C 10,6 C 78 % 1019,3 hPa 0,0 l/m 0 min 0 min 117 W/m 3,2 km/h (1 Bft) 97,87 %
19.04.2021 17:00 13,2 C 13,3 C 10,6 C 78 % 1019,3 hPa 0,0 l/m 0 min 0 min 124 W/m 9,7 km/h (2 Bft) 100,00 %
19.04.2021 17:02 13,1 C 13,3 C 10,6 C 79 % 1019,3 hPa 0,0 l/m 0 min 0 min 128 W/m 12,9 km/h (3 Bft) 100,00 %
19.04.2021 17:04 13,1 C 12,8 C 10,6 C 80 % 1019,3 hPa 0,0 l/m 0 min 0 min 128 W/m 16,1 km/h (3 Bft) 100,00 %
19.04.2021 17:06 13,1 C 12,8 C 10,6 C 80 % 1019,3 hPa 0,0 l/m 0 min 0 min 126 W/m 6,4 km/h (2 Bft) 97,87 %
19.04.2021 17:08 13,1 C 13,3 C 10,6 C 80 % 1019,3 hPa 0,0 l/m 0 min 0 min 123 W/m 12,9 km/h (3 Bft) 95,74 %
19.04.2021 17:10 13,0 C 13,3 C 10,6 C 80 % 1019,3 hPa 0,0 l/m 0 min 0 min 117 W/m 6,4 km/h (2 Bft) 100,00 %
19.04.2021 17:12 13,0 C 13,3 C 10,6 C 80 % 1019,3 hPa 0,0 l/m 0 min 0 min 112 W/m 6,4 km/h (2 Bft) 100,00 %
19.04.2021 17:14 13,0 C 12,8 C 10,6 C 80 % 1019,2 hPa 0,0 l/m 0 min 0 min 109 W/m 9,7 km/h (2 Bft) 100,00 %
19.04.2021 17:16 13,0 C 12,8 C 10,6 C 81 % 1019,2 hPa 0,0 l/m 0 min 0 min 106 W/m 9,7 km/h (2 Bft) 100,00 %
19.04.2021 17:18 12,9 C 12,8 C 10,6 C 81 % 1019,2 hPa 0,0 l/m 0 min 0 min 103 W/m 6,4 km/h (2 Bft) 100,00 %
19.04.2021 17:20 12,9 C 12,8 C 10,6 C 81 % 1019,2 hPa 0,0 l/m 0 min 0 min 97 W/m 3,2 km/h (1 Bft) 100,00 %
19.04.2021 17:22 12,9 C 12,8 C 10,6 C 81 % 1019,1 hPa 0,0 l/m 0 min 0 min 93 W/m 12,9 km/h (3 Bft) 97,87 %
19.04.2021 17:24 12,9 C 12,8 C 10,6 C 81 % 1019,1 hPa 0,0 l/m 0 min 0 min 89 W/m 12,9 km/h (3 Bft) 100,00 %
19.04.2021 17:26 12,9 C 12,2 C 10,0 C 81 % 1019,2 hPa 0,0 l/m 0 min 0 min 87 W/m 9,7 km/h (2 Bft) 100,00 %
19.04.2021 17:28 12,9 C 12,2 C 10,0 C 81 % 1019,2 hPa 0,0 l/m 0 min 0 min 86 W/m 6,4 km/h (2 Bft) 97,83 %
19.04.2021 17:30 12,8 C 12,2 C 10,0 C 81 % 1019,3 hPa 0,0 l/m 0 min 0 min 85 W/m 9,7 km/h (2 Bft) 100,00 %
19.04.2021 17:32 12,8 C 12,2 C 10,0 C 81 % 1019,2 hPa 0,0 l/m 0 min 0 min 83 W/m 9,7 km/h (2 Bft) 100,00 %
19.04.2021 17:35 12,8 C 12,2 C 10,0 C 81 % 1019,3 hPa 0,0 l/m 0 min 0 min 82 W/m 12,9 km/h (3 Bft) 100,00 %
19.04.2021 17:36 12,8 C 12,2 C 10,0 C 81 % 1019,3 hPa 0,0 l/m 0 min 0 min 81 W/m 6,4 km/h (2 Bft) 100,00 %
19.04.2021 17:38 12,7 C 12,2 C 10,0 C 81 % 1019,2 hPa 0,0 l/m 0 min 0 min 82 W/m 9,7 km/h (2 Bft) 97,87 %
19.04.2021 17:40 12,7 C 12,2 C 10,0 C 81 % 1019,2 hPa 0,0 l/m 0 min 0 min 83 W/m 6,4 km/h (2 Bft) 97,14 %
19.04.2021 17:42 12,6 C 12,2 C 10,0 C 81 % 1019,3 hPa 0,0 l/m 0 min 0 min 83 W/m 9,7 km/h (2 Bft) 97,87 %
19.04.2021 17:44 12,6 C 12,2 C 10,0 C 82 % 1019,3 hPa 0,0 l/m 0 min 0 min 83 W/m 9,7 km/h (2 Bft) 97,87 %
19.04.2021 17:46 12,6 C 12,2 C 10,0 C 82 % 1019,3 hPa 0,0 l/m 0 min 0 min 84 W/m 9,7 km/h (2 Bft) 97,87 %
19.04.2021 17:48 12,6 C 12,2 C 10,0 C 82 % 1019,2 hPa 0,0 l/m 0 min 0 min 84 W/m 12,9 km/h (3 Bft) 97,83 %
19.04.2021 17:50 12,6 C 12,2 C 10,0 C 82 % 1019,3 hPa 0,0 l/m 0 min 0 min 87 W/m 6,4 km/h (2 Bft) 95,74 %
19.04.2021 17:52 12,6 C 12,2 C 10,0 C 82 % 1019,3 hPa 0,0 l/m 0 min 0 min 88 W/m 9,7 km/h (2 Bft) 97,87 %
19.04.2021 17:54 12,6 C 12,2 C 10,0 C 82 % 1019,2 hPa 0,0 l/m 0 min 0 min 90 W/m 6,4 km/h (2 Bft) 97,87 %
19.04.2021 17:56 12,6 C 12,2 C 10,0 C 82 % 1019,2 hPa 0,0 l/m 0 min 0 min 90 W/m 12,9 km/h (3 Bft) 95,74 %
19.04.2021 17:58 12,5 C 12,2 C 10,0 C 82 % 1019,2 hPa 0,0 l/m 0 min 0 min 90 W/m 9,7 km/h (2 Bft) 95,74 %
19.04.2021 18:00 12,5 C 12,2 C 10,0 C 82 % 1019,2 hPa 0,0 l/m 0 min 0 min 93 W/m 9,7 km/h (2 Bft) 97,83 %
19.04.2021 18:02 12,5 C 12,2 C 10,0 C 82 % 1019,2 hPa 0,0 l/m 0 min 0 min 96 W/m 12,9 km/h (3 Bft) 97,87 %
19.04.2021 18:04 12,5 C 12,2 C 10,0 C 83 % 1019,2 hPa 0,0 l/m 0 min 0 min 98 W/m 9,7 km/h (2 Bft) 97,87 %
19.04.2021 18:08 12,5 C 12,2 C 10,0 C 83 % 1019,2 hPa 0,0 l/m 0 min 0 min 100 W/m 16,1 km/h (3 Bft) 95,74 %
19.04.2021 18:10 12,5 C 12,2 C 10,0 C 83 % 1019,2 hPa 0,0 l/m 0 min 0 min 104 W/m 6,4 km/h (2 Bft) 95,74 %
19.04.2021 18:12 12,5 C 12,2 C 10,0 C 83 % 1019,2 hPa 0,0 l/m 0 min 0 min 106 W/m 12,9 km/h (3 Bft) 95,65 %
19.04.2021 18:14 12,5 C 12,2 C 10,0 C 83 % 1019,2 hPa 0,0 l/m 0 min 0 min 107 W/m 6,4 km/h (2 Bft) 95,74 %
19.04.2021 18:16 12,5 C 12,8 C 10,0 C 83 % 1019,3 hPa 0,0 l/m 0 min 0 min 107 W/m 6,4 km/h (2 Bft) 93,62 %
19.04.2021 18:18 12,5 C 12,8 C 10,0 C 83 % 1019,2 hPa 0,0 l/m 0 min 0 min 109 W/m 6,4 km/h (2 Bft) 93,62 %
19.04.2021 18:20 12,5 C 12,8 C 10,0 C 83 % 1019,3 hPa 0,0 l/m 0 min 0 min 111 W/m 6,4 km/h (2 Bft) 95,74 %
19.04.2021 18:22 12,5 C 12,8 C 10,0 C 83 % 1019,3 hPa 0,0 l/m 0 min 0 min 113 W/m 9,7 km/h (2 Bft) 95,74 %
19.04.2021 18:24 12,5 C 12,2 C 10,0 C 83 % 1019,2 hPa 0,0 l/m 0 min 0 min 110 W/m 12,9 km/h (3 Bft) 95,65 %
19.04.2021 18:26 12,5 C 12,2 C 10,0 C 83 % 1019,2 hPa 0,0 l/m 0 min 0 min 107 W/m 6,4 km/h (2 Bft) 93,62 %
19.04.2021 18:28 12,5 C 12,2 C 10,0 C 83 % 1019,2 hPa 0,0 l/m 0 min 0 min 102 W/m 9,7 km/h (2 Bft) 91,49 %
19.04.2021 18:30 12,5 C 12,2 C 10,0 C 83 % 1019,2 hPa 0,0 l/m 0 min 0 min 97 W/m 6,4 km/h (2 Bft) 95,74 %
19.04.2021 18:32 12,5 C 12,2 C 10,0 C 82 % 1019,2 hPa 0,0 l/m 0 min 0 min 94 W/m 3,2 km/h (1 Bft) 95,74 %
19.04.2021 18:34 12,5 C 12,2 C 10,0 C 82 % 1019,2 hPa 0,0 l/m 0 min 0 min 93 W/m 6,4 km/h (2 Bft) 95,74 %
19.04.2021 18:36 12,5 C 12,2 C 10,0 C 82 % 1019,2 hPa 0,0 l/m 0 min 0 min 92 W/m 6,4 km/h (2 Bft) 95,65 %
19.04.2021 18:38 12,5 C 12,2 C 10,0 C 82 % 1019,2 hPa 0,0 l/m 0 min 0 min 91 W/m 6,4 km/h (2 Bft) 95,74 %
19.04.2021 18:40 12,5 C 12,2 C 10,0 C 82 % 1019,2 hPa 0,0 l/m 0 min 0 min 87 W/m 6,4 km/h (2 Bft) 95,74 %
19.04.2021 18:42 12,5 C 12,2 C 10,0 C 82 % 1019,2 hPa 0,0 l/m 0 min 0 min 84 W/m 6,4 km/h (2 Bft) 93,62 %
19.04.2021 18:44 12,5 C 12,2 C 10,0 C 82 % 1019,2 hPa 0,0 l/m 0 min 0 min 86 W/m 3,2 km/h (1 Bft) 95,74 %
19.04.2021 18:46 12,5 C 12,2 C 10,0 C 82 % 1019,3 hPa 0,0 l/m 0 min 0 min 94 W/m 6,4 km/h (2 Bft) 95,65 %
19.04.2021 18:48 12,5 C 12,2 C 10,0 C 83 % 1019,2 hPa 0,0 l/m 0 min 0 min 105 W/m 6,4 km/h (2 Bft) 95,74 %
19.04.2021 18:50 12,5 C 12,2 C 10,0 C 83 % 1019,3 hPa 0,0 l/m 0 min 0 min 114 W/m 3,2 km/h (1 Bft) 97,87 %
19.04.2021 18:52 12,5 C 12,8 C 10,0 C 82 % 1019,2 hPa 0,0 l/m 0 min 0 min 118 W/m 3,2 km/h (1 Bft) 97,87 %
19.04.2021 18:54 12,5 C 12,8 C 10,0 C 83 % 1019,2 hPa 0,0 l/m 0 min 0 min 120 W/m 6,4 km/h (2 Bft) 97,87 %
19.04.2021 18:56 12,5 C 12,8 C 10,0 C 83 % 1019,2 hPa 0,0 l/m 0 min 0 min 123 W/m 6,4 km/h (2 Bft) 100,00 %
19.04.2021 18:58 12,5 C 12,8 C 10,0 C 83 % 1019,3 hPa 0,0 l/m 0 min 0 min 121 W/m 9,7 km/h (2 Bft) 97,83 %
19.04.2021 19:00 12,5 C 12,8 C 10,0 C 83 % 1019,2 hPa 0,0 l/m 0 min 0 min 114 W/m 6,4 km/h (2 Bft) 95,74 %
19.04.2021 19:02 12,5 C 12,8 C 10,0 C 83 % 1019,2 hPa 0,0 l/m 0 min 0 min 106 W/m 6,4 km/h (2 Bft) 100,00 %
19.04.2021 19:04 12,5 C 12,8 C 10,0 C 83 % 1019,2 hPa 0,0 l/m 0 min 0 min 98 W/m 6,4 km/h (2 Bft) 95,74 %
19.04.2021 19:06 12,5 C 12,8 C 10,0 C 83 % 1019,2 hPa 0,0 l/m 0 min 0 min 90 W/m 3,2 km/h (1 Bft) 97,87 %
19.04.2021 19:08 12,5 C 12,8 C 10,0 C 83 % 1019,1 hPa 0,0 l/m 0 min 0 min 85 W/m 6,4 km/h (2 Bft) 97,87 %
19.04.2021 19:10 12,5 C 12,8 C 10,0 C 83 % 1019,1 hPa 0,0 l/m 0 min 0 min 84 W/m 9,7 km/h (2 Bft) 95,65 %
19.04.2021 19:12 12,5 C 12,2 C 10,0 C 83 % 1019,1 hPa 0,0 l/m 0 min 0 min 83 W/m 9,7 km/h (2 Bft) 95,74 %
19.04.2021 19:14 12,5 C 12,2 C 10,0 C 83 % 1019,1 hPa 0,0 l/m 0 min 0 min 81 W/m 6,4 km/h (2 Bft) 97,87 %
19.04.2021 19:16 12,5 C 12,2 C 10,0 C 83 % 1019,1 hPa 0,0 l/m 0 min 0 min 81 W/m 3,2 km/h (1 Bft) 97,87 %
19.04.2021 19:18 12,5 C 12,2 C 10,0 C 83 % 1019,1 hPa 0,0 l/m 0 min 0 min 83 W/m 6,4 km/h (2 Bft) 93,62 %
19.04.2021 19:20 12,5 C 12,2 C 10,0 C 83 % 1019,1 hPa 0,0 l/m 0 min 0 min 84 W/m 9,7 km/h (2 Bft) 97,87 %
19.04.2021 19:22 12,5 C 12,2 C 10,0 C 83 % 1019,1 hPa 0,0 l/m 0 min 0 min 80 W/m 9,7 km/h (2 Bft) 97,83 %
19.04.2021 19:24 12,5 C 12,2 C 10,0 C 84 % 1019,1 hPa 0,0 l/m 0 min 0 min 74 W/m 6,4 km/h (2 Bft) 97,87 %
19.04.2021 19:26 12,5 C 12,2 C 10,0 C 84 % 1019,1 hPa 0,0 l/m 0 min 0 min 70 W/m 6,4 km/h (2 Bft) 97,87 %
19.04.2021 19:28 12,5 C 12,2 C 10,0 C 84 % 1019,1 hPa 0,0 l/m 0 min 0 min 66 W/m 3,2 km/h (1 Bft) 97,87 %
19.04.2021 19:30 12,5 C 12,2 C 10,0 C 84 % 1019,1 hPa 0,0 l/m 0 min 0 min 63 W/m 3,2 km/h (1 Bft) 97,87 %
19.04.2021 19:32 12,5 C 12,2 C 9,5 C 84 % 1019,1 hPa 0,0 l/m 0 min 0 min 59 W/m 0,0 km/h (0 Bft) 97,87 %
19.04.2021 19:34 12,5 C 12,2 C 9,5 C 84 % 1019,1 hPa 0,0 l/m 0 min 0 min 56 W/m 0,0 km/h (0 Bft) 96,36 %
19.04.2021 19:36 12,5 C 12,2 C 9,5 C 84 % 1019,1 hPa 0,0 l/m 0 min 0 min 54 W/m 3,2 km/h (1 Bft) 97,87 %
19.04.2021 19:38 12,5 C 12,2 C 9,5 C 84 % 1019,1 hPa 0,0 l/m 0 min 0 min 54 W/m 3,2 km/h (1 Bft) 97,87 %
19.04.2021 19:40 12,4 C 11,7 C 9,5 C 85 % 1019,1 hPa 0,0 l/m 0 min 0 min 53 W/m 3,2 km/h (1 Bft) 97,87 %
19.04.2021 19:42 12,4 C 11,7 C 9,5 C 85 % 1019,1 hPa 0,0 l/m 0 min 0 min 51 W/m 3,2 km/h (1 Bft) 100,00 %
19.04.2021 19:44 12,4 C 11,7 C 9,5 C 85 % 1019,1 hPa 0,0 l/m 0 min 0 min 48 W/m 3,2 km/h (1 Bft) 97,87 %
19.04.2021 19:46 12,3 C 11,7 C 9,5 C 85 % 1019,0 hPa 0,0 l/m 0 min 0 min 46 W/m 3,2 km/h (1 Bft) 100,00 %
19.04.2021 19:48 12,3 C 11,7 C 9,5 C 84 % 1019,0 hPa 0,0 l/m 0 min 0 min 44 W/m 6,4 km/h (2 Bft) 97,87 %
19.04.2021 19:50 12,2 C 11,7 C 9,5 C 84 % 1019,1 hPa 0,0 l/m 0 min 0 min 43 W/m 3,2 km/h (1 Bft) 100,00 %
19.04.2021 19:52 12,2 C 11,7 C 9,5 C 84 % 1019,0 hPa 0,0 l/m 0 min 0 min 41 W/m 3,2 km/h (1 Bft) 97,87 %
19.04.2021 19:54 12,1 C 11,7 C 9,5 C 84 % 1019,0 hPa 0,0 l/m 0 min 0 min 39 W/m 0,0 km/h (0 Bft) 100,00 %
19.04.2021 19:56 12,1 C 11,7 C 9,5 C 84 % 1019,0 hPa 0,0 l/m 0 min 0 min 39 W/m 3,2 km/h (1 Bft) 100,00 %
19.04.2021 19:58 12,1 C 11,7 C 9,5 C 84 % 1018,9 hPa 0,0 l/m 0 min 0 min 38 W/m 3,2 km/h (1 Bft) 100,00 %
19.04.2021 20:00 12,1 C 11,7 C 9,5 C 85 % 1019,0 hPa 0,0 l/m 0 min 0 min 34 W/m 0,0 km/h (0 Bft) 100,00 %
19.04.2021 20:02 12,1 C 11,1 C 9,5 C 85 % 1019,0 hPa 0,0 l/m 0 min 0 min 32 W/m 3,2 km/h (1 Bft) 100,00 %
19.04.2021 20:04 12,0 C 11,1 C 8,9 C 85 % 1018,9 hPa 0,0 l/m 0 min 0 min 31 W/m 3,2 km/h (1 Bft) 100,00 %
19.04.2021 20:06 12,0 C 11,1 C 8,9 C 85 % 1018,9 hPa 0,0 l/m 0 min 0 min 28 W/m 0,0 km/h (0 Bft) 100,00 %
19.04.2021 20:08 12,0 C 11,1 C 8,9 C 85 % 1019,0 hPa 0,0 l/m 0 min 0 min 26 W/m 0,0 km/h (0 Bft) 100,00 %
19.04.2021 20:10 12,0 C 11,1 C 8,9 C 85 % 1019,0 hPa 0,0 l/m 0 min 0 min 25 W/m 3,2 km/h (1 Bft) 100,00 %
19.04.2021 20:12 12,0 C 11,1 C 8,9 C 85 % 1019,0 hPa 0,0 l/m 0 min 0 min 23 W/m 0,0 km/h (0 Bft) 100,00 %
19.04.2021 20:14 11,9 C 11,1 C 8,9 C 85 % 1019,0 hPa 0,0 l/m 0 min 0 min 21 W/m 0,0 km/h (0 Bft) 100,00 %
19.04.2021 20:16 11,9 C 11,1 C 8,9 C 86 % 1019,0 hPa 0,0 l/m 2 min 0 min 20 W/m 3,2 km/h (1 Bft) 100,00 %
19.04.2021 20:18 11,8 C 11,1 C 8,9 C 86 % 1019,0 hPa 0,0 l/m 0 min 0 min 19 W/m 0,0 km/h (0 Bft) 97,87 %
19.04.2021 20:20 11,8 C 11,1 C 8,9 C 86 % 1019,1 hPa 0,0 l/m 0 min 0 min 17 W/m 0,0 km/h (0 Bft) 100,00 %
19.04.2021 20:22 11,8 C 10,6 C 8,9 C 86 % 1019,0 hPa 0,0 l/m 0 min 0 min 16 W/m 0,0 km/h (0 Bft) 100,00 %
19.04.2021 20:24 11,8 C 10,6 C 8,9 C 86 % 1019,1 hPa 0,0 l/m 0 min 0 min 14 W/m 0,0 km/h (0 Bft) 97,87 %
19.04.2021 20:26 11,7 C 10,6 C 8,9 C 86 % 1019,1 hPa 0,0 l/m 0 min 0 min 12 W/m 0,0 km/h (0 Bft) 100,00 %
19.04.2021 20:28 11,7 C 10,6 C 8,9 C 87 % 1019,1 hPa 0,0 l/m 0 min 0 min 12 W/m 0,0 km/h (0 Bft) 100,00 %
19.04.2021 20:30 11,7 C 10,6 C 8,4 C 87 % 1019,1 hPa 0,0 l/m 0 min 0 min 11 W/m 0,0 km/h (0 Bft) 100,00 %
19.04.2021 20:32 11,7 C 10,6 C 8,4 C 87 % 1019,0 hPa 0,0 l/m 0 min 0 min 9 W/m 0,0 km/h (0 Bft) 100,00 %
19.04.2021 20:34 11,6 C 10,6 C 8,4 C 87 % 1019,1 hPa 0,0 l/m 0 min 0 min 8 W/m 0,0 km/h (0 Bft) 97,87 %
19.04.2021 20:36 11,6 C 10,6 C 8,4 C 87 % 1019,1 hPa 0,0 l/m 0 min 0 min 6 W/m 0,0 km/h (0 Bft) 97,83 %
19.04.2021 20:38 11,6 C 10,6 C 8,4 C 86 % 1019,1 hPa 0,0 l/m 0 min 0 min 5 W/m 3,2 km/h (1 Bft) 97,92 %
19.04.2021 20:40 11,6 C 10,6 C 8,4 C 86 % 1019,1 hPa 0,0 l/m 0 min 0 min 3 W/m 0,0 km/h (0 Bft) 100,00 %
19.04.2021 20:42 11,5 C 10,0 C 8,4 C 86 % 1019,2 hPa 0,0 l/m 0 min 0 min 0 W/m 3,2 km/h (1 Bft) 97,87 %
19.04.2021 20:44 11,5 C 10,0 C 7,8 C 86 % 1019,2 hPa 0,0 l/m 0 min 0 min 0 W/m 0,0 km/h (0 Bft) 97,87 %
19.04.2021 20:46 11,5 C 10,0 C 7,8 C 86 % 1019,2 hPa 0,0 l/m 0 min 0 min 0 W/m 0,0 km/h (0 Bft) 95,74 %
19.04.2021 20:48 11,5 C 10,0 C 7,8 C 86 % 1019,2 hPa 0,0 l/m 0 min 0 min 0 W/m 3,2 km/h (1 Bft) 97,83 %
19.04.2021 20:50 11,4 C 10,0 C 7,8 C 86 % 1019,2 hPa 0,0 l/m 0 min 0 min 0 W/m 0,0 km/h (0 Bft) 97,87 %
19.04.2021 20:52 11,4 C 10,0 C 7,8 C 86 % 1019,2 hPa 0,0 l/m 0 min 0 min 0 W/m 0,0 km/h (0 Bft) 97,87 %
19.04.2021 20:54 11,4 C 9,4 C 7,8 C 86 % 1019,2 hPa 0,0 l/m 0 min 0 min 0 W/m 0,0 km/h (0 Bft) 97,87 %
19.04.2021 20:56 11,4 C 9,4 C 7,3 C 86 % 1019,3 hPa 0,0 l/m 0 min 0 min 0 W/m 3,2 km/h (1 Bft) 93,62 %
19.04.2021 20:58 11,3 C 9,4 C 7,3 C 86 % 1019,3 hPa 0,0 l/m 0 min 0 min 0 W/m 0,0 km/h (0 Bft) 97,87 %
19.04.2021 21:00 11,3 C 9,4 C 7,3 C 86 % 1019,3 hPa 0,0 l/m 0 min 0 min 0 W/m 0,0 km/h (0 Bft) 97,83 %
19.04.2021 21:02 11,3 C 9,4 C 7,3 C 86 % 1019,3 hPa 0,0 l/m 0 min 0 min 0 W/m 0,0 km/h (0 Bft) 95,74 %
19.04.2021 21:04 11,2 C 9,4 C 7,3 C 86 % 1019,3 hPa 0,0 l/m 0 min 0 min 0 W/m 0,0 km/h (0 Bft) 97,87 %
19.04.2021 21:06 11,1 C 8,9 C 7,3 C 86 % 1019,3 hPa 0,0 l/m 0 min 0 min 0 W/m 0,0 km/h (0 Bft) 95,74 %
19.04.2021 21:08 11,1 C 8,9 C 7,3 C 86 % 1019,2 hPa 0,0 l/m 0 min 0 min 0 W/m 0,0 km/h (0 Bft) 95,74 %
19.04.2021 21:10 11,1 C 8,9 C 6,7 C 86 % 1019,3 hPa 0,0 l/m 0 min 0 min 0 W/m 0,0 km/h (0 Bft) 97,87 %
19.04.2021 21:12 11,0 C 8,9 C 6,7 C 86 % 1019,2 hPa 0,0 l/m 0 min 0 min 0 W/m 0,0 km/h (0 Bft) 95,65 %
19.04.2021 21:14 11,0 C 8,9 C 6,7 C 86 % 1019,2 hPa 0,0 l/m 0 min 0 min 0 W/m 0,0 km/h (0 Bft) 95,74 %
19.04.2021 21:16 10,9 C 8,9 C 6,7 C 86 % 1019,3 hPa 0,0 l/m 0 min 0 min 0 W/m 0,0 km/h (0 Bft) 97,87 %
19.04.2021 21:18 10,9 C 8,9 C 6,7 C 86 % 1019,3 hPa 0,0 l/m 0 min 0 min 0 W/m 0,0 km/h (0 Bft) 97,87 %
19.04.2021 21:20 10,9 C 8,3 C 6,7 C 86 % 1019,2 hPa 0,0 l/m 0 min 0 min 0 W/m 0,0 km/h (0 Bft) 95,74 %
19.04.2021 21:22 10,8 C 8,3 C 6,7 C 86 % 1019,3 hPa 0,0 l/m 0 min 0 min 0 W/m 0,0 km/h (0 Bft) 82,98 %
19.04.2021 21:24 10,8 C 8,3 C 6,7 C 86 % 1019,3 hPa 0,0 l/m 0 min 0 min 0 W/m 0,0 km/h (0 Bft) 71,11 %
19.04.2021 21:26 10,7 C 8,3 C 6,7 C 86 % 1019,3 hPa 0,0 l/m 0 min 0 min 0 W/m 0,0 km/h (0 Bft) 100,00 %
19.04.2021 21:28 10,6 C 8,3 C 6,7 C 86 % 1019,3 hPa 0,0 l/m 0 min 0 min 0 W/m 0,0 km/h (0 Bft) 95,74 %
19.04.2021 21:30 10,6 C 8,3 C 6,7 C 86 % 1019,2 hPa 0,0 l/m 0 min 0 min 0 W/m 0,0 km/h (0 Bft) 100,00 %
19.04.2021 21:32 10,6 C 8,3 C 6,7 C 86 % 1019,3 hPa 0,0 l/m 0 min 0 min 0 W/m 0,0 km/h (0 Bft) 100,00 %
19.04.2021 21:34 10,5 C 8,3 C 6,7 C 86 % 1019,3 hPa 0,0 l/m 0 min 0 min 0 W/m 0,0 km/h (0 Bft) 97,87 %
19.04.2021 21:36 10,5 C 8,3 C 6,7 C 86 % 1019,2 hPa 0,0 l/m 0 min 0 min 0 W/m 0,0 km/h (0 Bft) 100,00 %
19.04.2021 21:38 10,4 C 8,3 C 6,1 C 86 % 1019,3 hPa 0,0 l/m 0 min 0 min 0 W/m 0,0 km/h (0 Bft) 100,00 %
19.04.2021 21:40 10,4 C 8,3 C 6,1 C 87 % 1019,3 hPa 0,0 l/m 0 min 0 min 0 W/m 0,0 km/h (0 Bft) 100,00 %
19.04.2021 21:42 10,4 C 8,3 C 6,1 C 87 % 1019,3 hPa 0,0 l/m 0 min 0 min 0 W/m 0,0 km/h (0 Bft) 100,00 %
19.04.2021 21:44 10,3 C 8,3 C 6,1 C 87 % 1019,3 hPa 0,0 l/m 0 min 0 min 0 W/m 0,0 km/h (0 Bft) 100,00 %
19.04.2021 21:46 10,3 C 8,3 C 6,1 C 87 % 1019,2 hPa 0,0 l/m 0 min 0 min 0 W/m 0,0 km/h (0 Bft) 100,00 %
19.04.2021 21:48 10,2 C 8,3 C 6,1 C 87 % 1019,2 hPa 0,0 l/m 0 min 0 min 0 W/m 0,0 km/h (0 Bft) 100,00 %
19.04.2021 21:50 10,1 C 7,8 C 6,1 C 87 % 1019,3 hPa 0,0 l/m 0 min 0 min 0 W/m 0,0 km/h (0 Bft) 100,00 %
19.04.2021 21:52 10,1 C 7,8 C 6,1 C 87 % 1019,2 hPa 0,0 l/m 0 min 0 min 0 W/m 0,0 km/h (0 Bft) 100,00 %
19.04.2021 21:54 10,0 C 7,8 C 6,1 C 87 % 1019,3 hPa 0,0 l/m 0 min 0 min 0 W/m 0,0 km/h (0 Bft) 97,87 %
19.04.2021 21:56 10,0 C 7,8 C 6,1 C 87 % 1019,2 hPa 0,0 l/m 0 min 0 min 0 W/m 0,0 km/h (0 Bft) 100,00 %
19.04.2021 21:58 10,0 C 7,8 C 6,1 C 87 % 1019,2 hPa 0,0 l/m 0 min 0 min 0 W/m 0,0 km/h (0 Bft) 97,87 %
19.04.2021 22:00 9,9 C 7,8 C 6,1 C 87 % 1019,2 hPa 0,0 l/m 0 min 0 min 0 W/m 0,0 km/h (0 Bft) 97,83 %
19.04.2021 22:02 9,9 C 7,8 C 6,1 C 87 % 1019,2 hPa 0,0 l/m 0 min 0 min 0 W/m 0,0 km/h (0 Bft) 95,74 %
19.04.2021 22:04 9,9 C 7,8 C 6,1 C 87 % 1019,2 hPa 0,0 l/m 0 min 0 min 0 W/m 0,0 km/h (0 Bft) 97,87 %
19.04.2021 22:06 9,8 C 7,8 C 6,1 C 87 % 1019,2 hPa 0,0 l/m 0 min 0 min 0 W/m 0,0 km/h (0 Bft) 93,62 %
19.04.2021 22:08 9,8 C 7,8 C 6,1 C 88 % 1019,2 hPa 0,0 l/m 0 min 0 min 0 W/m 0,0 km/h (0 Bft) 95,74 %
19.04.2021 22:10 9,7 C 7,8 C 6,1 C 88 % 1019,2 hPa 0,0 l/m 0 min 0 min 0 W/m 0,0 km/h (0 Bft) 97,87 %
19.04.2021 22:12 9,7 C 7,8 C 6,1 C 88 % 1019,2 hPa 0,0 l/m 0 min 0 min 0 W/m 0,0 km/h (0 Bft) 97,87 %
19.04.2021 22:14 9,6 C 7,8 C 6,1 C 88 % 1019,3 hPa 0,0 l/m 0 min 0 min 0 W/m 0,0 km/h (0 Bft) 97,87 %
19.04.2021 22:16 9,6 C 7,8 C 6,1 C 88 % 1019,3 hPa 0,0 l/m 0 min 0 min 0 W/m 0,0 km/h (0 Bft) 95,65 %
19.04.2021 22:18 9,5 C 7,8 C 6,1 C 88 % 1019,2 hPa 0,0 l/m 0 min 0 min 0 W/m 0,0 km/h (0 Bft) 95,74 %
19.04.2021 22:20 9,5 C 7,2 C 6,1 C 88 % 1019,2 hPa 0,0 l/m 0 min 0 min 0 W/m 0,0 km/h (0 Bft) 97,87 %
19.04.2021 22:22 9,5 C 7,2 C 5,6 C 88 % 1019,3 hPa 0,0 l/m 0 min 0 min 0 W/m 0,0 km/h (0 Bft) 93,62 %
19.04.2021 22:24 9,4 C 7,2 C 5,6 C 88 % 1019,2 hPa 0,0 l/m 0 min 0 min 0 W/m 0,0 km/h (0 Bft) 93,62 %
19.04.2021 22:26 9,4 C 7,2 C 5,6 C 88 % 1019,2 hPa 0,0 l/m 0 min 0 min 0 W/m 0,0 km/h (0 Bft) 95,74 %
19.04.2021 22:28 9,4 C 7,2 C 5,6 C 88 % 1019,2 hPa 0,0 l/m 0 min 0 min 0 W/m 0,0 km/h (0 Bft) 95,65 %
19.04.2021 22:30 9,3 C 7,2 C 5,6 C 88 % 1019,2 hPa 0,0 l/m 0 min 0 min 0 W/m 0,0 km/h (0 Bft) 95,74 %
19.04.2021 22:32 9,3 C 7,2 C 5,6 C 88 % 1019,2 hPa 0,0 l/m 0 min 0 min 0 W/m 0,0 km/h (0 Bft) 93,62 %
19.04.2021 22:34 9,3 C 7,2 C 5,6 C 89 % 1019,2 hPa 0,0 l/m 0 min 0 min 0 W/m 0,0 km/h (0 Bft) 95,74 %
19.04.2021 22:36 9,2 C 7,2 C 5,6 C 89 % 1019,2 hPa 0,0 l/m 0 min 0 min 0 W/m 0,0 km/h (0 Bft) 95,74 %
19.04.2021 22:38 9,1 C 7,2 C 5,6 C 89 % 1019,2 hPa 0,0 l/m 0 min 0 min 0 W/m 0,0 km/h (0 Bft) 95,65 %
19.04.2021 22:40 9,1 C 7,2 C 5,6 C 89 % 1019,2 hPa 0,0 l/m 0 min 0 min 0 W/m 0,0 km/h (0 Bft) 95,74 %
19.04.2021 22:42 9,1 C 7,2 C 5,6 C 89 % 1019,2 hPa 0,0 l/m 0 min 0 min 0 W/m 0,0 km/h (0 Bft) 91,49 %
19.04.2021 22:44 9,0 C 7,2 C 5,6 C 89 % 1019,2 hPa 0,0 l/m 0 min 0 min 0 W/m 0,0 km/h (0 Bft) 95,74 %
19.04.2021 22:46 9,0 C 7,2 C 5,6 C 89 % 1019,2 hPa 0,0 l/m 0 min 0 min 0 W/m 0,0 km/h (0 Bft) 95,74 %
19.04.2021 22:48 9,0 C 7,2 C 5,6 C 89 % 1019,2 hPa 0,0 l/m 0 min 0 min 0 W/m 0,0 km/h (0 Bft) 95,74 %
19.04.2021 22:50 8,9 C 7,2 C 5,6 C 89 % 1019,2 hPa 0,0 l/m 0 min 0 min 0 W/m 0,0 km/h (0 Bft) 48,78 %
19.04.2021 22:52 8,9 C 6,7 C 5,6 C 89 % 1019,2 hPa 0,0 l/m 0 min 0 min 0 W/m 0,0 km/h (0 Bft) 93,62 %
19.04.2021 22:54 8,8 C 6,7 C 5,0 C 89 % 1019,3 hPa 0,0 l/m 0 min 0 min 0 W/m 0,0 km/h (0 Bft) 93,62 %
19.04.2021 22:56 8,8 C 6,7 C 5,0 C 89 % 1019,2 hPa 0,0 l/m 0 min 0 min 0 W/m 0,0 km/h (0 Bft) 95,74 %
19.04.2021 22:58 8,8 C 6,7 C 5,0 C 89 % 1019,2 hPa 0,0 l/m 0 min 0 min 0 W/m 0,0 km/h (0 Bft) 93,62 %
19.04.2021 23:00 8,7 C 6,7 C 5,0 C 89 % 1019,2 hPa 0,0 l/m 0 min 0 min 0 W/m 0,0 km/h (0 Bft) 95,74 %
19.04.2021 23:02 8,6 C 6,7 C 5,0 C 89 % 1019,2 hPa 0,0 l/m 0 min 0 min 0 W/m 0,0 km/h (0 Bft) 95,65 %
19.04.2021 23:04 8,6 C 6,7 C 5,0 C 89 % 1019,1 hPa 0,0 l/m 0 min 0 min 0 W/m 0,0 km/h (0 Bft) 95,74 %
19.04.2021 23:06 8,6 C 6,7 C 5,0 C 89 % 1019,2 hPa 0,0 l/m 0 min 0 min 0 W/m 0,0 km/h (0 Bft) 93,62 %
19.04.2021 23:08 8,5 C 6,7 C 5,0 C 89 % 1019,1 hPa 0,0 l/m 0 min 0 min 0 W/m 0,0 km/h (0 Bft) 95,74 %
19.04.2021 23:10 8,5 C 6,7 C 5,0 C 89 % 1019,1 hPa 0,0 l/m 0 min 0 min 0 W/m 0,0 km/h (0 Bft) 93,62 %
19.04.2021 23:12 8,4 C 6,7 C 5,0 C 89 % 1019,1 hPa 0,0 l/m 0 min 0 min 0 W/m 0,0 km/h (0 Bft) 93,62 %
19.04.2021 23:14 8,4 C 6,7 C 5,0 C 89 % 1019,1 hPa 0,0 l/m 0 min 0 min 0 W/m 0,0 km/h (0 Bft) 95,65 %
19.04.2021 23:16 8,4 C 6,7 C 5,0 C 90 % 1019,1 hPa 0,0 l/m 0 min 0 min 0 W/m 0,0 km/h (0 Bft) 93,62 %
19.04.2021 23:18 8,3 C 6,7 C 5,0 C 89 % 1019,1 hPa 0,0 l/m 0 min 0 min 0 W/m 0,0 km/h (0 Bft) 93,62 %
19.04.2021 23:20 8,3 C 6,7 C 5,0 C 90 % 1019,1 hPa 0,0 l/m 0 min 0 min 0 W/m 0,0 km/h (0 Bft) 93,62 %
19.04.2021 23:22 8,3 C 6,7 C 5,0 C 90 % 1019,1 hPa 0,0 l/m 0 min 0 min 0 W/m 0,0 km/h (0 Bft) 91,49 %
19.04.2021 23:24 8,2 C 6,7 C 5,0 C 90 % 1019,1 hPa 0,0 l/m 0 min 0 min 0 W/m 0,0 km/h (0 Bft) 97,87 %
19.04.2021 23:26 8,2 C 6,7 C 5,0 C 90 % 1019,1 hPa 0,0 l/m 0 min 0 min 0 W/m 0,0 km/h (0 Bft) 97,83 %
19.04.2021 23:28 8,1 C 6,7 C 5,0 C 90 % 1019,1 hPa 0,0 l/m 0 min 0 min 0 W/m 0,0 km/h (0 Bft) 97,87 %
19.04.2021 23:30 8,1 C 6,1 C 5,0 C 90 % 1019,0 hPa 0,0 l/m 0 min 0 min 0 W/m 0,0 km/h (0 Bft) 95,74 %
19.04.2021 23:32 8,1 C 6,1 C 5,0 C 90 % 1019,1 hPa 0,0 l/m 0 min 0 min 0 W/m 0,0 km/h (0 Bft) 97,87 %
19.04.2021 23:34 8,0 C 6,1 C 5,0 C 90 % 1019,1 hPa 0,0 l/m 0 min 0 min 0 W/m 0,0 km/h (0 Bft) 95,74 %
19.04.2021 23:36 8,0 C 6,1 C 5,0 C 90 % 1019,0 hPa 0,0 l/m 0 min 0 min 0 W/m 0,0 km/h (0 Bft) 97,87 %
19.04.2021 23:38 8,0 C 6,1 C 5,0 C 90 % 1019,0 hPa 0,0 l/m 0 min 0 min 0 W/m 0,0 km/h (0 Bft) 97,83 %
19.04.2021 23:40 7,9 C 6,1 C 4,5 C 90 % 1019,0 hPa 0,0 l/m 0 min 0 min 0 W/m 0,0 km/h (0 Bft) 97,22 %
19.04.2021 23:42 7,9 C 6,1 C 4,5 C 90 % 1019,0 hPa 0,0 l/m 0 min 0 min 0 W/m 0,0 km/h (0 Bft) 97,83 %
19.04.2021 23:44 7,9 C 6,1 C 4,5 C 90 % 1019,0 hPa 0,0 l/m 0 min 0 min 0 W/m 0,0 km/h (0 Bft) 97,87 %
19.04.2021 23:46 7,8 C 6,1 C 4,5 C 90 % 1019,0 hPa 0,0 l/m 0 min 0 min 0 W/m 0,0 km/h (0 Bft) 97,87 %
19.04.2021 23:48 7,8 C 6,1 C 4,5 C 90 % 1019,0 hPa 0,0 l/m 0 min 0 min 0 W/m 0,0 km/h (0 Bft) 97,87 %
19.04.2021 23:50 7,8 C 6,1 C 4,5 C 90 % 1019,0 hPa 0,0 l/m 0 min 0 min 0 W/m 0,0 km/h (0 Bft) 97,87 %
19.04.2021 23:52 7,8 C 6,1 C 4,5 C 90 % 1019,0 hPa 0,0 l/m 0 min 0 min 0 W/m 0,0 km/h (0 Bft) 97,83 %
19.04.2021 23:54 7,7 C 6,1 C 4,5 C 90 % 1019,0 hPa 0,0 l/m 0 min 0 min 0 W/m 0,0 km/h (0 Bft) 97,87 %
19.04.2021 23:56 7,6 C 6,1 C 4,5 C 90 % 1019,0 hPa 0,0 l/m 0 min 0 min 0 W/m 0,0 km/h (0 Bft) 95,74 %
19.04.2021 23:58 7,6 C 6,1 C 4,5 C 90 % 1019,0 hPa 0,0 l/m 0 min 0 min 0 W/m 0,0 km/h (0 Bft) 97,87 %
_ Min-Zeit 09:02 08:28 07:08 15:42 19:58 - - - - 01:10 04:05
Minimum _ 6,8 C 5,6 C 3,9 C 77 % 1018,9 hPa - - - - 0,0 km/h (0 Bft) 1,75 %
_ Max-Zeit 15:48 15:38 15:40 09:46 11:38 07:08 13:04 04:24 14:42 02:34 00:00
Maximum _ 14,2 C 20,0 C 12,8 C 97 % 1020,8 hPa 0,2 l/m 2 min 2 min 1014 W/m 19,3 km/h
N-NO (3 Bft)
100,00 %
Durchschnitt _ 9,7 C 9,6 C 7,2 C 87 % 1019,9 hPa #4,2 l/m #2:26 h #3:06 h 196 W/m 5,3 km/h (1 Bft) 91,65 %
© 2021 W. Hausmann